<?xml version="1.0" encoding="UTF-8" standalone="no" ?>
<gpx xmlns="http://www.topografix.com/GPX/1/1" xmlns:xsi="http://www.w3.org/2001/XMLSchema-instance" xsi:schemaLocation="http://www.topografix.com/GPX/1/1 http://www.topografix.com/GPX/1/1/gpx.xsd" version="1.1" creator="VisuGPX - https://www.visugpx.com">
  <metadata>
    <name>ARDIN</name>
    <desc><![CDATA[Au fil des lavoirs.]]></desc>
  </metadata>
  <trk>
    <name><![CDATA[ACTIVE LOG: 20 SEP 2014 07:13]]></name>
    <trkseg>
      <trkpt lat="46.47526" lon="-0.5507">
        <ele>57.34</ele>
        <time>2014-09-20T13:13:22Z</time>
      </trkpt>
      <trkpt lat="46.47537" lon="-0.55069">
        <ele>55.89</ele>
        <time>2014-09-20T13:14:56Z</time>
      </trkpt>
      <trkpt lat="46.47547" lon="-0.55082">
        <ele>54.93</ele>
        <time>2014-09-20T13:15:05Z</time>
      </trkpt>
      <trkpt lat="46.47558" lon="-0.55093">
        <ele>54.93</ele>
        <time>2014-09-20T13:15:14Z</time>
      </trkpt>
      <trkpt lat="46.47565" lon="-0.55115">
        <ele>54.45</ele>
        <time>2014-09-20T13:15:26Z</time>
      </trkpt>
      <trkpt lat="46.4757" lon="-0.55129">
        <ele>53.01</ele>
        <time>2014-09-20T13:15:37Z</time>
      </trkpt>
      <trkpt lat="46.4757" lon="-0.55131">
        <ele>53.01</ele>
        <time>2014-09-20T13:15:48Z</time>
      </trkpt>
      <trkpt lat="46.47571" lon="-0.55134">
        <ele>53.01</ele>
        <time>2014-09-20T13:16:03Z</time>
      </trkpt>
      <trkpt lat="46.47573" lon="-0.55145">
        <ele>53.49</ele>
        <time>2014-09-20T13:16:14Z</time>
      </trkpt>
      <trkpt lat="46.47581" lon="-0.55165">
        <ele>53.49</ele>
        <time>2014-09-20T13:16:28Z</time>
      </trkpt>
      <trkpt lat="46.47582" lon="-0.55166">
        <ele>53.49</ele>
        <time>2014-09-20T13:16:36Z</time>
      </trkpt>
      <trkpt lat="46.47583" lon="-0.55165">
        <ele>53.01</ele>
        <time>2014-09-20T13:16:42Z</time>
      </trkpt>
      <trkpt lat="46.47581" lon="-0.55166">
        <ele>53.49</ele>
        <time>2014-09-20T13:17:04Z</time>
      </trkpt>
      <trkpt lat="46.47585" lon="-0.5517">
        <ele>54.45</ele>
        <time>2014-09-20T13:18:39Z</time>
      </trkpt>
      <trkpt lat="46.47603" lon="-0.55168">
        <ele>55.89</ele>
        <time>2014-09-20T13:18:52Z</time>
      </trkpt>
      <trkpt lat="46.47615" lon="-0.55165">
        <ele>56.86</ele>
        <time>2014-09-20T13:19:01Z</time>
      </trkpt>
      <trkpt lat="46.47625" lon="-0.55163">
        <ele>57.82</ele>
        <time>2014-09-20T13:19:10Z</time>
      </trkpt>
      <trkpt lat="46.47635" lon="-0.55158">
        <ele>60.7</ele>
        <time>2014-09-20T13:19:19Z</time>
      </trkpt>
      <trkpt lat="46.47644" lon="-0.55158">
        <ele>63.1</ele>
        <time>2014-09-20T13:19:28Z</time>
      </trkpt>
      <trkpt lat="46.47647" lon="-0.55158">
        <ele>63.58</ele>
        <time>2014-09-20T13:19:35Z</time>
      </trkpt>
      <trkpt lat="46.47654" lon="-0.55154">
        <ele>64.07</ele>
        <time>2014-09-20T13:19:43Z</time>
      </trkpt>
      <trkpt lat="46.47666" lon="-0.55152">
        <ele>65.03</ele>
        <time>2014-09-20T13:19:52Z</time>
      </trkpt>
      <trkpt lat="46.47679" lon="-0.55155">
        <ele>67.91</ele>
        <time>2014-09-20T13:20:01Z</time>
      </trkpt>
      <trkpt lat="46.47686" lon="-0.55166">
        <ele>68.39</ele>
        <time>2014-09-20T13:20:10Z</time>
      </trkpt>
      <trkpt lat="46.47694" lon="-0.55178">
        <ele>69.83</ele>
        <time>2014-09-20T13:20:19Z</time>
      </trkpt>
      <trkpt lat="46.47703" lon="-0.55171">
        <ele>70.31</ele>
        <time>2014-09-20T13:20:27Z</time>
      </trkpt>
      <trkpt lat="46.47712" lon="-0.5516">
        <ele>70.31</ele>
        <time>2014-09-20T13:20:37Z</time>
      </trkpt>
      <trkpt lat="46.4772" lon="-0.55142">
        <ele>69.35</ele>
        <time>2014-09-20T13:20:49Z</time>
      </trkpt>
      <trkpt lat="46.47726" lon="-0.55138">
        <ele>68.39</ele>
        <time>2014-09-20T13:20:54Z</time>
      </trkpt>
      <trkpt lat="46.47729" lon="-0.55137">
        <ele>68.87</ele>
        <time>2014-09-20T13:20:56Z</time>
      </trkpt>
      <trkpt lat="46.47739" lon="-0.55138">
        <ele>69.35</ele>
        <time>2014-09-20T13:21:03Z</time>
      </trkpt>
      <trkpt lat="46.47749" lon="-0.5515">
        <ele>71.27</ele>
        <time>2014-09-20T13:21:14Z</time>
      </trkpt>
      <trkpt lat="46.47756" lon="-0.55167">
        <ele>72.72</ele>
        <time>2014-09-20T13:21:24Z</time>
      </trkpt>
      <trkpt lat="46.47761" lon="-0.55178">
        <ele>72.24</ele>
        <time>2014-09-20T13:21:31Z</time>
      </trkpt>
      <trkpt lat="46.47768" lon="-0.55191">
        <ele>72.24</ele>
        <time>2014-09-20T13:21:37Z</time>
      </trkpt>
      <trkpt lat="46.47775" lon="-0.55206">
        <ele>72.72</ele>
        <time>2014-09-20T13:21:46Z</time>
      </trkpt>
      <trkpt lat="46.47783" lon="-0.55225">
        <ele>74.16</ele>
        <time>2014-09-20T13:21:59Z</time>
      </trkpt>
      <trkpt lat="46.4779" lon="-0.5524">
        <ele>72.72</ele>
        <time>2014-09-20T13:22:07Z</time>
      </trkpt>
      <trkpt lat="46.47795" lon="-0.5525">
        <ele>71.27</ele>
        <time>2014-09-20T13:22:15Z</time>
      </trkpt>
      <trkpt lat="46.47801" lon="-0.55262">
        <ele>70.31</ele>
        <time>2014-09-20T13:22:22Z</time>
      </trkpt>
      <trkpt lat="46.47806" lon="-0.55272">
        <ele>70.31</ele>
        <time>2014-09-20T13:22:27Z</time>
      </trkpt>
      <trkpt lat="46.47812" lon="-0.55284">
        <ele>70.31</ele>
        <time>2014-09-20T13:22:36Z</time>
      </trkpt>
      <trkpt lat="46.47821" lon="-0.55302">
        <ele>70.79</ele>
        <time>2014-09-20T13:22:47Z</time>
      </trkpt>
      <trkpt lat="46.47829" lon="-0.55317">
        <ele>70.31</ele>
        <time>2014-09-20T13:22:57Z</time>
      </trkpt>
      <trkpt lat="46.47838" lon="-0.55331">
        <ele>69.83</ele>
        <time>2014-09-20T13:23:06Z</time>
      </trkpt>
      <trkpt lat="46.4784" lon="-0.55343">
        <ele>70.31</ele>
        <time>2014-09-20T13:23:13Z</time>
      </trkpt>
      <trkpt lat="46.47846" lon="-0.55359">
        <ele>70.31</ele>
        <time>2014-09-20T13:23:23Z</time>
      </trkpt>
      <trkpt lat="46.47854" lon="-0.5538">
        <ele>69.83</ele>
        <time>2014-09-20T13:23:34Z</time>
      </trkpt>
      <trkpt lat="46.47862" lon="-0.55394">
        <ele>69.83</ele>
        <time>2014-09-20T13:23:43Z</time>
      </trkpt>
      <trkpt lat="46.47862" lon="-0.55416">
        <ele>70.31</ele>
        <time>2014-09-20T13:23:54Z</time>
      </trkpt>
      <trkpt lat="46.47861" lon="-0.55433">
        <ele>71.27</ele>
        <time>2014-09-20T13:24:01Z</time>
      </trkpt>
      <trkpt lat="46.47867" lon="-0.55449">
        <ele>69.35</ele>
        <time>2014-09-20T13:24:10Z</time>
      </trkpt>
      <trkpt lat="46.47867" lon="-0.55467">
        <ele>67.91</ele>
        <time>2014-09-20T13:24:16Z</time>
      </trkpt>
      <trkpt lat="46.47863" lon="-0.55474">
        <ele>66.95</ele>
        <time>2014-09-20T13:24:22Z</time>
      </trkpt>
      <trkpt lat="46.47862" lon="-0.55482">
        <ele>67.91</ele>
        <time>2014-09-20T13:24:26Z</time>
      </trkpt>
      <trkpt lat="46.47861" lon="-0.55491">
        <ele>68.87</ele>
        <time>2014-09-20T13:24:32Z</time>
      </trkpt>
      <trkpt lat="46.47862" lon="-0.55508">
        <ele>69.35</ele>
        <time>2014-09-20T13:24:39Z</time>
      </trkpt>
      <trkpt lat="46.47862" lon="-0.55518">
        <ele>68.87</ele>
        <time>2014-09-20T13:24:45Z</time>
      </trkpt>
      <trkpt lat="46.47864" lon="-0.55528">
        <ele>66.47</ele>
        <time>2014-09-20T13:24:51Z</time>
      </trkpt>
      <trkpt lat="46.47864" lon="-0.55536">
        <ele>65.99</ele>
        <time>2014-09-20T13:24:55Z</time>
      </trkpt>
      <trkpt lat="46.47865" lon="-0.55548">
        <ele>62.14</ele>
        <time>2014-09-20T13:25:03Z</time>
      </trkpt>
      <trkpt lat="46.47867" lon="-0.55562">
        <ele>60.22</ele>
        <time>2014-09-20T13:25:08Z</time>
      </trkpt>
      <trkpt lat="46.47867" lon="-0.55572">
        <ele>58.78</ele>
        <time>2014-09-20T13:25:15Z</time>
      </trkpt>
      <trkpt lat="46.47868" lon="-0.55582">
        <ele>59.26</ele>
        <time>2014-09-20T13:25:21Z</time>
      </trkpt>
      <trkpt lat="46.47866" lon="-0.55601">
        <ele>59.74</ele>
        <time>2014-09-20T13:25:31Z</time>
      </trkpt>
      <trkpt lat="46.47866" lon="-0.55618">
        <ele>59.26</ele>
        <time>2014-09-20T13:25:40Z</time>
      </trkpt>
      <trkpt lat="46.47864" lon="-0.55636">
        <ele>59.26</ele>
        <time>2014-09-20T13:25:49Z</time>
      </trkpt>
      <trkpt lat="46.47864" lon="-0.55642">
        <ele>59.74</ele>
        <time>2014-09-20T13:25:53Z</time>
      </trkpt>
      <trkpt lat="46.47858" lon="-0.55662">
        <ele>60.22</ele>
        <time>2014-09-20T13:26:03Z</time>
      </trkpt>
      <trkpt lat="46.47853" lon="-0.55677">
        <ele>60.7</ele>
        <time>2014-09-20T13:26:12Z</time>
      </trkpt>
      <trkpt lat="46.47851" lon="-0.55698">
        <ele>62.14</ele>
        <time>2014-09-20T13:26:23Z</time>
      </trkpt>
      <trkpt lat="46.47847" lon="-0.55713">
        <ele>63.1</ele>
        <time>2014-09-20T13:26:32Z</time>
      </trkpt>
      <trkpt lat="46.47846" lon="-0.55728">
        <ele>63.1</ele>
        <time>2014-09-20T13:26:41Z</time>
      </trkpt>
      <trkpt lat="46.47841" lon="-0.55747">
        <ele>62.14</ele>
        <time>2014-09-20T13:26:51Z</time>
      </trkpt>
      <trkpt lat="46.47843" lon="-0.55749">
        <ele>60.22</ele>
        <time>2014-09-20T13:26:54Z</time>
      </trkpt>
      <trkpt lat="46.47854" lon="-0.55745">
        <ele>57.34</ele>
        <time>2014-09-20T13:27:03Z</time>
      </trkpt>
      <trkpt lat="46.47863" lon="-0.55741">
        <ele>55.41</ele>
        <time>2014-09-20T13:27:11Z</time>
      </trkpt>
      <trkpt lat="46.47872" lon="-0.55738">
        <ele>55.89</ele>
        <time>2014-09-20T13:27:19Z</time>
      </trkpt>
      <trkpt lat="46.47882" lon="-0.55737">
        <ele>56.86</ele>
        <time>2014-09-20T13:27:27Z</time>
      </trkpt>
      <trkpt lat="46.47892" lon="-0.55736">
        <ele>55.41</ele>
        <time>2014-09-20T13:27:36Z</time>
      </trkpt>
      <trkpt lat="46.47903" lon="-0.55737">
        <ele>54.93</ele>
        <time>2014-09-20T13:27:44Z</time>
      </trkpt>
      <trkpt lat="46.47912" lon="-0.55739">
        <ele>53.97</ele>
        <time>2014-09-20T13:27:50Z</time>
      </trkpt>
      <trkpt lat="46.47924" lon="-0.55744">
        <ele>53.97</ele>
        <time>2014-09-20T13:27:57Z</time>
      </trkpt>
      <trkpt lat="46.47934" lon="-0.55747">
        <ele>53.97</ele>
        <time>2014-09-20T13:28:05Z</time>
      </trkpt>
      <trkpt lat="46.47942" lon="-0.55754">
        <ele>54.93</ele>
        <time>2014-09-20T13:28:13Z</time>
      </trkpt>
      <trkpt lat="46.47947" lon="-0.55763">
        <ele>55.41</ele>
        <time>2014-09-20T13:28:22Z</time>
      </trkpt>
      <trkpt lat="46.47959" lon="-0.55772">
        <ele>55.41</ele>
        <time>2014-09-20T13:28:30Z</time>
      </trkpt>
      <trkpt lat="46.47969" lon="-0.55783">
        <ele>55.89</ele>
        <time>2014-09-20T13:28:40Z</time>
      </trkpt>
      <trkpt lat="46.47975" lon="-0.5579">
        <ele>56.37</ele>
        <time>2014-09-20T13:28:46Z</time>
      </trkpt>
      <trkpt lat="46.47982" lon="-0.55804">
        <ele>56.37</ele>
        <time>2014-09-20T13:28:56Z</time>
      </trkpt>
      <trkpt lat="46.47991" lon="-0.55814">
        <ele>56.37</ele>
        <time>2014-09-20T13:29:05Z</time>
      </trkpt>
      <trkpt lat="46.48001" lon="-0.55822">
        <ele>56.86</ele>
        <time>2014-09-20T13:29:14Z</time>
      </trkpt>
      <trkpt lat="46.48013" lon="-0.5583">
        <ele>58.78</ele>
        <time>2014-09-20T13:29:23Z</time>
      </trkpt>
      <trkpt lat="46.48017" lon="-0.55834">
        <ele>60.22</ele>
        <time>2014-09-20T13:29:28Z</time>
      </trkpt>
      <trkpt lat="46.48025" lon="-0.55839">
        <ele>61.18</ele>
        <time>2014-09-20T13:29:36Z</time>
      </trkpt>
      <trkpt lat="46.48032" lon="-0.55846">
        <ele>60.7</ele>
        <time>2014-09-20T13:29:43Z</time>
      </trkpt>
      <trkpt lat="46.48045" lon="-0.55851">
        <ele>59.26</ele>
        <time>2014-09-20T13:29:52Z</time>
      </trkpt>
      <trkpt lat="46.48061" lon="-0.55859">
        <ele>58.78</ele>
        <time>2014-09-20T13:30:03Z</time>
      </trkpt>
      <trkpt lat="46.48069" lon="-0.55861">
        <ele>58.3</ele>
        <time>2014-09-20T13:30:11Z</time>
      </trkpt>
      <trkpt lat="46.48079" lon="-0.55862">
        <ele>58.78</ele>
        <time>2014-09-20T13:30:20Z</time>
      </trkpt>
      <trkpt lat="46.4809" lon="-0.55865">
        <ele>57.82</ele>
        <time>2014-09-20T13:30:28Z</time>
      </trkpt>
      <trkpt lat="46.48092" lon="-0.55865">
        <ele>58.3</ele>
        <time>2014-09-20T13:30:31Z</time>
      </trkpt>
      <trkpt lat="46.48105" lon="-0.55865">
        <ele>57.82</ele>
        <time>2014-09-20T13:30:40Z</time>
      </trkpt>
      <trkpt lat="46.48115" lon="-0.55864">
        <ele>53.97</ele>
        <time>2014-09-20T13:30:49Z</time>
      </trkpt>
      <trkpt lat="46.48128" lon="-0.55861">
        <ele>53.01</ele>
        <time>2014-09-20T13:31:00Z</time>
      </trkpt>
      <trkpt lat="46.48138" lon="-0.55858">
        <ele>54.45</ele>
        <time>2014-09-20T13:31:08Z</time>
      </trkpt>
      <trkpt lat="46.48145" lon="-0.55853">
        <ele>54.45</ele>
        <time>2014-09-20T13:31:16Z</time>
      </trkpt>
      <trkpt lat="46.48157" lon="-0.55848">
        <ele>54.93</ele>
        <time>2014-09-20T13:31:25Z</time>
      </trkpt>
      <trkpt lat="46.48168" lon="-0.55842">
        <ele>56.37</ele>
        <time>2014-09-20T13:31:33Z</time>
      </trkpt>
      <trkpt lat="46.48179" lon="-0.55834">
        <ele>56.86</ele>
        <time>2014-09-20T13:31:42Z</time>
      </trkpt>
      <trkpt lat="46.48186" lon="-0.5583">
        <ele>57.34</ele>
        <time>2014-09-20T13:31:47Z</time>
      </trkpt>
      <trkpt lat="46.48196" lon="-0.55826">
        <ele>58.3</ele>
        <time>2014-09-20T13:31:55Z</time>
      </trkpt>
      <trkpt lat="46.48202" lon="-0.55821">
        <ele>57.82</ele>
        <time>2014-09-20T13:32:02Z</time>
      </trkpt>
      <trkpt lat="46.48215" lon="-0.55813">
        <ele>58.3</ele>
        <time>2014-09-20T13:32:13Z</time>
      </trkpt>
      <trkpt lat="46.48227" lon="-0.55805">
        <ele>58.3</ele>
        <time>2014-09-20T13:32:23Z</time>
      </trkpt>
      <trkpt lat="46.48237" lon="-0.55798">
        <ele>60.7</ele>
        <time>2014-09-20T13:32:32Z</time>
      </trkpt>
      <trkpt lat="46.48251" lon="-0.55792">
        <ele>60.22</ele>
        <time>2014-09-20T13:32:43Z</time>
      </trkpt>
      <trkpt lat="46.48264" lon="-0.55784">
        <ele>56.86</ele>
        <time>2014-09-20T13:32:54Z</time>
      </trkpt>
      <trkpt lat="46.48282" lon="-0.55776">
        <ele>54.45</ele>
        <time>2014-09-20T13:33:07Z</time>
      </trkpt>
      <trkpt lat="46.48294" lon="-0.55771">
        <ele>52.05</ele>
        <time>2014-09-20T13:33:18Z</time>
      </trkpt>
      <trkpt lat="46.48304" lon="-0.55769">
        <ele>50.61</ele>
        <time>2014-09-20T13:33:26Z</time>
      </trkpt>
      <trkpt lat="46.48319" lon="-0.55766">
        <ele>47.72</ele>
        <time>2014-09-20T13:33:37Z</time>
      </trkpt>
      <trkpt lat="46.48333" lon="-0.55764">
        <ele>48.68</ele>
        <time>2014-09-20T13:33:47Z</time>
      </trkpt>
      <trkpt lat="46.48346" lon="-0.55763">
        <ele>50.13</ele>
        <time>2014-09-20T13:33:58Z</time>
      </trkpt>
      <trkpt lat="46.48357" lon="-0.55762">
        <ele>50.61</ele>
        <time>2014-09-20T13:34:07Z</time>
      </trkpt>
      <trkpt lat="46.48368" lon="-0.55762">
        <ele>51.09</ele>
        <time>2014-09-20T13:34:17Z</time>
      </trkpt>
      <trkpt lat="46.48379" lon="-0.5576">
        <ele>51.09</ele>
        <time>2014-09-20T13:34:25Z</time>
      </trkpt>
      <trkpt lat="46.48392" lon="-0.55757">
        <ele>53.49</ele>
        <time>2014-09-20T13:34:34Z</time>
      </trkpt>
      <trkpt lat="46.48404" lon="-0.55758">
        <ele>52.53</ele>
        <time>2014-09-20T13:34:43Z</time>
      </trkpt>
      <trkpt lat="46.48417" lon="-0.55758">
        <ele>53.01</ele>
        <time>2014-09-20T13:34:52Z</time>
      </trkpt>
      <trkpt lat="46.48429" lon="-0.5576">
        <ele>53.49</ele>
        <time>2014-09-20T13:35:02Z</time>
      </trkpt>
      <trkpt lat="46.48442" lon="-0.55759">
        <ele>54.45</ele>
        <time>2014-09-20T13:35:11Z</time>
      </trkpt>
      <trkpt lat="46.48456" lon="-0.55758">
        <ele>54.45</ele>
        <time>2014-09-20T13:35:22Z</time>
      </trkpt>
      <trkpt lat="46.48468" lon="-0.55757">
        <ele>53.97</ele>
        <time>2014-09-20T13:35:31Z</time>
      </trkpt>
      <trkpt lat="46.48478" lon="-0.55752">
        <ele>52.53</ele>
        <time>2014-09-20T13:35:41Z</time>
      </trkpt>
      <trkpt lat="46.48487" lon="-0.55749">
        <ele>53.97</ele>
        <time>2014-09-20T13:35:49Z</time>
      </trkpt>
      <trkpt lat="46.48497" lon="-0.55745">
        <ele>53.01</ele>
        <time>2014-09-20T13:35:57Z</time>
      </trkpt>
      <trkpt lat="46.48508" lon="-0.55735">
        <ele>53.01</ele>
        <time>2014-09-20T13:36:08Z</time>
      </trkpt>
      <trkpt lat="46.48524" lon="-0.55727">
        <ele>52.53</ele>
        <time>2014-09-20T13:36:19Z</time>
      </trkpt>
      <trkpt lat="46.4854" lon="-0.55716">
        <ele>51.57</ele>
        <time>2014-09-20T13:36:33Z</time>
      </trkpt>
      <trkpt lat="46.48557" lon="-0.55704">
        <ele>52.53</ele>
        <time>2014-09-20T13:36:48Z</time>
      </trkpt>
      <trkpt lat="46.48578" lon="-0.55693">
        <ele>52.53</ele>
        <time>2014-09-20T13:37:07Z</time>
      </trkpt>
      <trkpt lat="46.48584" lon="-0.55687">
        <ele>52.53</ele>
        <time>2014-09-20T13:37:12Z</time>
      </trkpt>
      <trkpt lat="46.48593" lon="-0.55682">
        <ele>51.57</ele>
        <time>2014-09-20T13:37:20Z</time>
      </trkpt>
      <trkpt lat="46.48603" lon="-0.55678">
        <ele>51.57</ele>
        <time>2014-09-20T13:37:28Z</time>
      </trkpt>
      <trkpt lat="46.48607" lon="-0.55677">
        <ele>50.13</ele>
        <time>2014-09-20T13:37:31Z</time>
      </trkpt>
      <trkpt lat="46.48613" lon="-0.55677">
        <ele>51.57</ele>
        <time>2014-09-20T13:37:34Z</time>
      </trkpt>
      <trkpt lat="46.48625" lon="-0.55672">
        <ele>53.01</ele>
        <time>2014-09-20T13:37:43Z</time>
      </trkpt>
      <trkpt lat="46.48632" lon="-0.55663">
        <ele>51.57</ele>
        <time>2014-09-20T13:37:51Z</time>
      </trkpt>
      <trkpt lat="46.48638" lon="-0.55661">
        <ele>52.05</ele>
        <time>2014-09-20T13:37:56Z</time>
      </trkpt>
      <trkpt lat="46.48651" lon="-0.55659">
        <ele>52.53</ele>
        <time>2014-09-20T13:38:05Z</time>
      </trkpt>
      <trkpt lat="46.48673" lon="-0.55655">
        <ele>53.01</ele>
        <time>2014-09-20T13:38:22Z</time>
      </trkpt>
      <trkpt lat="46.4869" lon="-0.55649">
        <ele>52.53</ele>
        <time>2014-09-20T13:38:35Z</time>
      </trkpt>
      <trkpt lat="46.487" lon="-0.55642">
        <ele>53.49</ele>
        <time>2014-09-20T13:38:46Z</time>
      </trkpt>
      <trkpt lat="46.48705" lon="-0.55635">
        <ele>54.93</ele>
        <time>2014-09-20T13:38:52Z</time>
      </trkpt>
      <trkpt lat="46.48716" lon="-0.5563">
        <ele>55.41</ele>
        <time>2014-09-20T13:38:59Z</time>
      </trkpt>
      <trkpt lat="46.48724" lon="-0.55631">
        <ele>56.86</ele>
        <time>2014-09-20T13:39:03Z</time>
      </trkpt>
      <trkpt lat="46.48731" lon="-0.55629">
        <ele>57.34</ele>
        <time>2014-09-20T13:39:08Z</time>
      </trkpt>
      <trkpt lat="46.48738" lon="-0.55627">
        <ele>59.26</ele>
        <time>2014-09-20T13:39:13Z</time>
      </trkpt>
      <trkpt lat="46.4874" lon="-0.5562">
        <ele>58.78</ele>
        <time>2014-09-20T13:39:19Z</time>
      </trkpt>
      <trkpt lat="46.48752" lon="-0.55613">
        <ele>59.26</ele>
        <time>2014-09-20T13:39:28Z</time>
      </trkpt>
      <trkpt lat="46.48757" lon="-0.5561">
        <ele>59.26</ele>
        <time>2014-09-20T13:39:32Z</time>
      </trkpt>
      <trkpt lat="46.48766" lon="-0.55609">
        <ele>59.26</ele>
        <time>2014-09-20T13:39:38Z</time>
      </trkpt>
      <trkpt lat="46.48767" lon="-0.55608">
        <ele>59.74</ele>
        <time>2014-09-20T13:39:39Z</time>
      </trkpt>
      <trkpt lat="46.48773" lon="-0.556">
        <ele>61.66</ele>
        <time>2014-09-20T13:39:47Z</time>
      </trkpt>
      <trkpt lat="46.48779" lon="-0.55594">
        <ele>62.62</ele>
        <time>2014-09-20T13:39:53Z</time>
      </trkpt>
      <trkpt lat="46.48789" lon="-0.55585">
        <ele>62.14</ele>
        <time>2014-09-20T13:40:02Z</time>
      </trkpt>
      <trkpt lat="46.48797" lon="-0.55573">
        <ele>61.18</ele>
        <time>2014-09-20T13:40:11Z</time>
      </trkpt>
      <trkpt lat="46.48805" lon="-0.55565">
        <ele>60.7</ele>
        <time>2014-09-20T13:40:19Z</time>
      </trkpt>
      <trkpt lat="46.48806" lon="-0.55564">
        <ele>60.7</ele>
        <time>2014-09-20T13:40:20Z</time>
      </trkpt>
      <trkpt lat="46.48814" lon="-0.55559">
        <ele>61.18</ele>
        <time>2014-09-20T13:40:26Z</time>
      </trkpt>
      <trkpt lat="46.48816" lon="-0.55557">
        <ele>61.18</ele>
        <time>2014-09-20T13:40:28Z</time>
      </trkpt>
      <trkpt lat="46.48825" lon="-0.55551">
        <ele>60.7</ele>
        <time>2014-09-20T13:40:34Z</time>
      </trkpt>
      <trkpt lat="46.48832" lon="-0.5555">
        <ele>60.22</ele>
        <time>2014-09-20T13:40:39Z</time>
      </trkpt>
      <trkpt lat="46.48837" lon="-0.5555">
        <ele>60.22</ele>
        <time>2014-09-20T13:40:42Z</time>
      </trkpt>
      <trkpt lat="46.48843" lon="-0.55548">
        <ele>61.66</ele>
        <time>2014-09-20T13:40:47Z</time>
      </trkpt>
      <trkpt lat="46.4885" lon="-0.55536">
        <ele>62.62</ele>
        <time>2014-09-20T13:40:56Z</time>
      </trkpt>
      <trkpt lat="46.48855" lon="-0.55528">
        <ele>63.58</ele>
        <time>2014-09-20T13:41:03Z</time>
      </trkpt>
      <trkpt lat="46.48859" lon="-0.55518">
        <ele>64.07</ele>
        <time>2014-09-20T13:41:10Z</time>
      </trkpt>
      <trkpt lat="46.48866" lon="-0.55506">
        <ele>64.07</ele>
        <time>2014-09-20T13:41:17Z</time>
      </trkpt>
      <trkpt lat="46.48875" lon="-0.55492">
        <ele>63.1</ele>
        <time>2014-09-20T13:41:28Z</time>
      </trkpt>
      <trkpt lat="46.48877" lon="-0.55486">
        <ele>63.1</ele>
        <time>2014-09-20T13:41:32Z</time>
      </trkpt>
      <trkpt lat="46.48884" lon="-0.55475">
        <ele>63.58</ele>
        <time>2014-09-20T13:41:41Z</time>
      </trkpt>
      <trkpt lat="46.48892" lon="-0.55459">
        <ele>64.07</ele>
        <time>2014-09-20T13:41:51Z</time>
      </trkpt>
      <trkpt lat="46.48897" lon="-0.55452">
        <ele>64.07</ele>
        <time>2014-09-20T13:41:57Z</time>
      </trkpt>
      <trkpt lat="46.48904" lon="-0.55444">
        <ele>62.62</ele>
        <time>2014-09-20T13:42:04Z</time>
      </trkpt>
      <trkpt lat="46.48911" lon="-0.55432">
        <ele>61.66</ele>
        <time>2014-09-20T13:42:12Z</time>
      </trkpt>
      <trkpt lat="46.4892" lon="-0.55426">
        <ele>61.66</ele>
        <time>2014-09-20T13:42:20Z</time>
      </trkpt>
      <trkpt lat="46.48931" lon="-0.55417">
        <ele>62.62</ele>
        <time>2014-09-20T13:42:32Z</time>
      </trkpt>
      <trkpt lat="46.4894" lon="-0.55411">
        <ele>62.62</ele>
        <time>2014-09-20T13:42:40Z</time>
      </trkpt>
      <trkpt lat="46.48948" lon="-0.55403">
        <ele>62.62</ele>
        <time>2014-09-20T13:42:48Z</time>
      </trkpt>
      <trkpt lat="46.4896" lon="-0.55395">
        <ele>63.1</ele>
        <time>2014-09-20T13:42:57Z</time>
      </trkpt>
      <trkpt lat="46.48969" lon="-0.5539">
        <ele>63.58</ele>
        <time>2014-09-20T13:43:05Z</time>
      </trkpt>
      <trkpt lat="46.4897" lon="-0.55389">
        <ele>63.58</ele>
        <time>2014-09-20T13:43:06Z</time>
      </trkpt>
      <trkpt lat="46.48981" lon="-0.55388">
        <ele>63.58</ele>
        <time>2014-09-20T13:43:15Z</time>
      </trkpt>
      <trkpt lat="46.48992" lon="-0.55386">
        <ele>63.58</ele>
        <time>2014-09-20T13:43:23Z</time>
      </trkpt>
      <trkpt lat="46.49002" lon="-0.55383">
        <ele>62.14</ele>
        <time>2014-09-20T13:43:32Z</time>
      </trkpt>
      <trkpt lat="46.49015" lon="-0.55382">
        <ele>62.14</ele>
        <time>2014-09-20T13:43:41Z</time>
      </trkpt>
      <trkpt lat="46.49024" lon="-0.55378">
        <ele>59.74</ele>
        <time>2014-09-20T13:43:50Z</time>
      </trkpt>
      <trkpt lat="46.49032" lon="-0.55374">
        <ele>60.7</ele>
        <time>2014-09-20T13:43:59Z</time>
      </trkpt>
      <trkpt lat="46.49039" lon="-0.55372">
        <ele>61.66</ele>
        <time>2014-09-20T13:44:07Z</time>
      </trkpt>
      <trkpt lat="46.49047" lon="-0.55368">
        <ele>61.66</ele>
        <time>2014-09-20T13:44:15Z</time>
      </trkpt>
      <trkpt lat="46.49057" lon="-0.55364">
        <ele>63.58</ele>
        <time>2014-09-20T13:44:22Z</time>
      </trkpt>
      <trkpt lat="46.49069" lon="-0.55357">
        <ele>64.55</ele>
        <time>2014-09-20T13:44:33Z</time>
      </trkpt>
      <trkpt lat="46.49073" lon="-0.55355">
        <ele>64.55</ele>
        <time>2014-09-20T13:44:37Z</time>
      </trkpt>
      <trkpt lat="46.49086" lon="-0.5535">
        <ele>65.03</ele>
        <time>2014-09-20T13:44:48Z</time>
      </trkpt>
      <trkpt lat="46.49101" lon="-0.55346">
        <ele>66.47</ele>
        <time>2014-09-20T13:45:00Z</time>
      </trkpt>
      <trkpt lat="46.49111" lon="-0.55344">
        <ele>65.03</ele>
        <time>2014-09-20T13:45:09Z</time>
      </trkpt>
      <trkpt lat="46.49123" lon="-0.55338">
        <ele>63.58</ele>
        <time>2014-09-20T13:45:19Z</time>
      </trkpt>
      <trkpt lat="46.49134" lon="-0.55329">
        <ele>62.14</ele>
        <time>2014-09-20T13:45:31Z</time>
      </trkpt>
      <trkpt lat="46.49144" lon="-0.55319">
        <ele>60.7</ele>
        <time>2014-09-20T13:45:41Z</time>
      </trkpt>
      <trkpt lat="46.49154" lon="-0.55312">
        <ele>60.7</ele>
        <time>2014-09-20T13:45:50Z</time>
      </trkpt>
      <trkpt lat="46.49163" lon="-0.55305">
        <ele>60.7</ele>
        <time>2014-09-20T13:45:59Z</time>
      </trkpt>
      <trkpt lat="46.49174" lon="-0.55299">
        <ele>61.18</ele>
        <time>2014-09-20T13:46:09Z</time>
      </trkpt>
      <trkpt lat="46.49182" lon="-0.55298">
        <ele>62.14</ele>
        <time>2014-09-20T13:46:18Z</time>
      </trkpt>
      <trkpt lat="46.49197" lon="-0.55298">
        <ele>62.62</ele>
        <time>2014-09-20T13:46:31Z</time>
      </trkpt>
      <trkpt lat="46.49216" lon="-0.55295">
        <ele>65.99</ele>
        <time>2014-09-20T13:46:46Z</time>
      </trkpt>
      <trkpt lat="46.49231" lon="-0.55291">
        <ele>70.79</ele>
        <time>2014-09-20T13:46:57Z</time>
      </trkpt>
      <trkpt lat="46.49241" lon="-0.55284">
        <ele>73.2</ele>
        <time>2014-09-20T13:47:06Z</time>
      </trkpt>
      <trkpt lat="46.49249" lon="-0.55274">
        <ele>74.16</ele>
        <time>2014-09-20T13:47:16Z</time>
      </trkpt>
      <trkpt lat="46.49255" lon="-0.55265">
        <ele>73.68</ele>
        <time>2014-09-20T13:47:24Z</time>
      </trkpt>
      <trkpt lat="46.49265" lon="-0.55254">
        <ele>74.16</ele>
        <time>2014-09-20T13:47:35Z</time>
      </trkpt>
      <trkpt lat="46.49276" lon="-0.55248">
        <ele>75.12</ele>
        <time>2014-09-20T13:47:45Z</time>
      </trkpt>
      <trkpt lat="46.49283" lon="-0.55243">
        <ele>75.6</ele>
        <time>2014-09-20T13:47:53Z</time>
      </trkpt>
      <trkpt lat="46.49284" lon="-0.55243">
        <ele>75.6</ele>
        <time>2014-09-20T13:47:54Z</time>
      </trkpt>
      <trkpt lat="46.4929" lon="-0.55237">
        <ele>74.64</ele>
        <time>2014-09-20T13:48:02Z</time>
      </trkpt>
      <trkpt lat="46.49299" lon="-0.55226">
        <ele>75.6</ele>
        <time>2014-09-20T13:48:11Z</time>
      </trkpt>
      <trkpt lat="46.49308" lon="-0.55217">
        <ele>76.56</ele>
        <time>2014-09-20T13:48:20Z</time>
      </trkpt>
      <trkpt lat="46.49316" lon="-0.55205">
        <ele>77.52</ele>
        <time>2014-09-20T13:48:29Z</time>
      </trkpt>
      <trkpt lat="46.4932" lon="-0.55197">
        <ele>77.52</ele>
        <time>2014-09-20T13:48:34Z</time>
      </trkpt>
      <trkpt lat="46.49328" lon="-0.55187">
        <ele>78</ele>
        <time>2014-09-20T13:48:43Z</time>
      </trkpt>
      <trkpt lat="46.49331" lon="-0.55179">
        <ele>78.48</ele>
        <time>2014-09-20T13:48:50Z</time>
      </trkpt>
      <trkpt lat="46.49339" lon="-0.55168">
        <ele>78.97</ele>
        <time>2014-09-20T13:48:59Z</time>
      </trkpt>
      <trkpt lat="46.49344" lon="-0.55157">
        <ele>78</ele>
        <time>2014-09-20T13:49:07Z</time>
      </trkpt>
      <trkpt lat="46.49352" lon="-0.55141">
        <ele>78.48</ele>
        <time>2014-09-20T13:49:17Z</time>
      </trkpt>
      <trkpt lat="46.49354" lon="-0.55132">
        <ele>78.48</ele>
        <time>2014-09-20T13:49:25Z</time>
      </trkpt>
      <trkpt lat="46.49362" lon="-0.55119">
        <ele>78</ele>
        <time>2014-09-20T13:49:35Z</time>
      </trkpt>
      <trkpt lat="46.49365" lon="-0.55107">
        <ele>78.97</ele>
        <time>2014-09-20T13:49:44Z</time>
      </trkpt>
      <trkpt lat="46.49368" lon="-0.55102">
        <ele>78</ele>
        <time>2014-09-20T13:49:51Z</time>
      </trkpt>
      <trkpt lat="46.49376" lon="-0.55096">
        <ele>78</ele>
        <time>2014-09-20T13:49:58Z</time>
      </trkpt>
      <trkpt lat="46.4939" lon="-0.55092">
        <ele>76.56</ele>
        <time>2014-09-20T13:50:09Z</time>
      </trkpt>
      <trkpt lat="46.49403" lon="-0.55089">
        <ele>74.64</ele>
        <time>2014-09-20T13:50:19Z</time>
      </trkpt>
      <trkpt lat="46.49416" lon="-0.55084">
        <ele>74.64</ele>
        <time>2014-09-20T13:50:30Z</time>
      </trkpt>
      <trkpt lat="46.49428" lon="-0.55078">
        <ele>74.16</ele>
        <time>2014-09-20T13:50:41Z</time>
      </trkpt>
      <trkpt lat="46.49438" lon="-0.55071">
        <ele>74.16</ele>
        <time>2014-09-20T13:50:51Z</time>
      </trkpt>
      <trkpt lat="46.49458" lon="-0.5506">
        <ele>70.79</ele>
        <time>2014-09-20T13:51:03Z</time>
      </trkpt>
      <trkpt lat="46.49462" lon="-0.55054">
        <ele>70.79</ele>
        <time>2014-09-20T13:51:11Z</time>
      </trkpt>
      <trkpt lat="46.49462" lon="-0.55053">
        <ele>72.24</ele>
        <time>2014-09-20T13:51:49Z</time>
      </trkpt>
      <trkpt lat="46.49464" lon="-0.55058">
        <ele>72.72</ele>
        <time>2014-09-20T13:51:58Z</time>
      </trkpt>
      <trkpt lat="46.49465" lon="-0.55056">
        <ele>72.72</ele>
        <time>2014-09-20T13:52:08Z</time>
      </trkpt>
      <trkpt lat="46.49467" lon="-0.55063">
        <ele>73.2</ele>
        <time>2014-09-20T13:52:16Z</time>
      </trkpt>
      <trkpt lat="46.49468" lon="-0.55065">
        <ele>72.72</ele>
        <time>2014-09-20T13:52:19Z</time>
      </trkpt>
      <trkpt lat="46.49468" lon="-0.55071">
        <ele>72.24</ele>
        <time>2014-09-20T13:52:25Z</time>
      </trkpt>
      <trkpt lat="46.49478" lon="-0.5508">
        <ele>71.27</ele>
        <time>2014-09-20T13:52:36Z</time>
      </trkpt>
      <trkpt lat="46.49485" lon="-0.55092">
        <ele>71.27</ele>
        <time>2014-09-20T13:52:46Z</time>
      </trkpt>
      <trkpt lat="46.49493" lon="-0.55106">
        <ele>70.79</ele>
        <time>2014-09-20T13:52:55Z</time>
      </trkpt>
      <trkpt lat="46.495" lon="-0.55125">
        <ele>72.24</ele>
        <time>2014-09-20T13:53:05Z</time>
      </trkpt>
      <trkpt lat="46.49504" lon="-0.55142">
        <ele>73.2</ele>
        <time>2014-09-20T13:53:13Z</time>
      </trkpt>
      <trkpt lat="46.49508" lon="-0.55159">
        <ele>75.12</ele>
        <time>2014-09-20T13:53:22Z</time>
      </trkpt>
      <trkpt lat="46.49511" lon="-0.55177">
        <ele>76.56</ele>
        <time>2014-09-20T13:53:33Z</time>
      </trkpt>
      <trkpt lat="46.49513" lon="-0.55197">
        <ele>80.41</ele>
        <time>2014-09-20T13:53:45Z</time>
      </trkpt>
      <trkpt lat="46.49516" lon="-0.55211">
        <ele>82.33</ele>
        <time>2014-09-20T13:53:54Z</time>
      </trkpt>
      <trkpt lat="46.49518" lon="-0.55227">
        <ele>83.77</ele>
        <time>2014-09-20T13:54:03Z</time>
      </trkpt>
      <trkpt lat="46.4952" lon="-0.55249">
        <ele>85.69</ele>
        <time>2014-09-20T13:54:14Z</time>
      </trkpt>
      <trkpt lat="46.49525" lon="-0.55268">
        <ele>87.14</ele>
        <time>2014-09-20T13:54:24Z</time>
      </trkpt>
      <trkpt lat="46.49528" lon="-0.55288">
        <ele>90.5</ele>
        <time>2014-09-20T13:54:35Z</time>
      </trkpt>
      <trkpt lat="46.4953" lon="-0.5531">
        <ele>93.87</ele>
        <time>2014-09-20T13:54:45Z</time>
      </trkpt>
      <trkpt lat="46.49534" lon="-0.55336">
        <ele>97.71</ele>
        <time>2014-09-20T13:54:58Z</time>
      </trkpt>
      <trkpt lat="46.49538" lon="-0.55361">
        <ele>100.6</ele>
        <time>2014-09-20T13:55:11Z</time>
      </trkpt>
      <trkpt lat="46.49542" lon="-0.55373">
        <ele>102.04</ele>
        <time>2014-09-20T13:55:19Z</time>
      </trkpt>
      <trkpt lat="46.49546" lon="-0.55384">
        <ele>103</ele>
        <time>2014-09-20T13:55:27Z</time>
      </trkpt>
      <trkpt lat="46.49551" lon="-0.55397">
        <ele>104.44</ele>
        <time>2014-09-20T13:55:37Z</time>
      </trkpt>
      <trkpt lat="46.4955" lon="-0.55396">
        <ele>103.96</ele>
        <time>2014-09-20T13:55:38Z</time>
      </trkpt>
      <trkpt lat="46.49546" lon="-0.55393">
        <ele>103</ele>
        <time>2014-09-20T13:55:42Z</time>
      </trkpt>
      <trkpt lat="46.49543" lon="-0.55407">
        <ele>101.56</ele>
        <time>2014-09-20T13:55:50Z</time>
      </trkpt>
      <trkpt lat="46.49537" lon="-0.55413">
        <ele>99.15</ele>
        <time>2014-09-20T13:55:57Z</time>
      </trkpt>
      <trkpt lat="46.49527" lon="-0.55426">
        <ele>97.71</ele>
        <time>2014-09-20T13:56:08Z</time>
      </trkpt>
      <trkpt lat="46.49521" lon="-0.55446">
        <ele>94.83</ele>
        <time>2014-09-20T13:56:18Z</time>
      </trkpt>
      <trkpt lat="46.49519" lon="-0.55459">
        <ele>94.83</ele>
        <time>2014-09-20T13:56:26Z</time>
      </trkpt>
      <trkpt lat="46.49527" lon="-0.55473">
        <ele>92.9</ele>
        <time>2014-09-20T13:56:36Z</time>
      </trkpt>
      <trkpt lat="46.49525" lon="-0.55481">
        <ele>90.98</ele>
        <time>2014-09-20T13:56:42Z</time>
      </trkpt>
      <trkpt lat="46.49524" lon="-0.55483">
        <ele>90.5</ele>
        <time>2014-09-20T13:56:44Z</time>
      </trkpt>
      <trkpt lat="46.49521" lon="-0.55492">
        <ele>88.1</ele>
        <time>2014-09-20T13:56:51Z</time>
      </trkpt>
      <trkpt lat="46.49514" lon="-0.55507">
        <ele>86.66</ele>
        <time>2014-09-20T13:57:00Z</time>
      </trkpt>
      <trkpt lat="46.49511" lon="-0.55525">
        <ele>84.25</ele>
        <time>2014-09-20T13:57:12Z</time>
      </trkpt>
      <trkpt lat="46.49513" lon="-0.55535">
        <ele>83.29</ele>
        <time>2014-09-20T13:57:19Z</time>
      </trkpt>
      <trkpt lat="46.49512" lon="-0.55538">
        <ele>82.81</ele>
        <time>2014-09-20T13:57:22Z</time>
      </trkpt>
      <trkpt lat="46.49517" lon="-0.55541">
        <ele>82.33</ele>
        <time>2014-09-20T13:57:27Z</time>
      </trkpt>
      <trkpt lat="46.49528" lon="-0.55543">
        <ele>81.37</ele>
        <time>2014-09-20T13:57:36Z</time>
      </trkpt>
      <trkpt lat="46.49533" lon="-0.55546">
        <ele>80.89</ele>
        <time>2014-09-20T13:57:43Z</time>
      </trkpt>
      <trkpt lat="46.4954" lon="-0.55553">
        <ele>80.41</ele>
        <time>2014-09-20T13:57:50Z</time>
      </trkpt>
      <trkpt lat="46.49548" lon="-0.55559">
        <ele>79.45</ele>
        <time>2014-09-20T13:57:57Z</time>
      </trkpt>
      <trkpt lat="46.49562" lon="-0.55565">
        <ele>79.45</ele>
        <time>2014-09-20T13:58:08Z</time>
      </trkpt>
      <trkpt lat="46.49567" lon="-0.55562">
        <ele>79.93</ele>
        <time>2014-09-20T13:58:13Z</time>
      </trkpt>
      <trkpt lat="46.49572" lon="-0.55546">
        <ele>81.85</ele>
        <time>2014-09-20T13:58:23Z</time>
      </trkpt>
      <trkpt lat="46.49576" lon="-0.55529">
        <ele>82.33</ele>
        <time>2014-09-20T13:58:33Z</time>
      </trkpt>
      <trkpt lat="46.49583" lon="-0.55519">
        <ele>83.77</ele>
        <time>2014-09-20T13:58:42Z</time>
      </trkpt>
      <trkpt lat="46.49592" lon="-0.55509">
        <ele>83.77</ele>
        <time>2014-09-20T13:58:52Z</time>
      </trkpt>
      <trkpt lat="46.49597" lon="-0.55499">
        <ele>84.73</ele>
        <time>2014-09-20T13:58:59Z</time>
      </trkpt>
      <trkpt lat="46.49603" lon="-0.55484">
        <ele>86.66</ele>
        <time>2014-09-20T13:59:08Z</time>
      </trkpt>
      <trkpt lat="46.49597" lon="-0.55465">
        <ele>87.62</ele>
        <time>2014-09-20T13:59:19Z</time>
      </trkpt>
      <trkpt lat="46.49598" lon="-0.55456">
        <ele>89.06</ele>
        <time>2014-09-20T13:59:24Z</time>
      </trkpt>
      <trkpt lat="46.49599" lon="-0.55454">
        <ele>89.54</ele>
        <time>2014-09-20T13:59:27Z</time>
      </trkpt>
      <trkpt lat="46.49609" lon="-0.55449">
        <ele>90.98</ele>
        <time>2014-09-20T13:59:35Z</time>
      </trkpt>
      <trkpt lat="46.4961" lon="-0.55447">
        <ele>91.46</ele>
        <time>2014-09-20T13:59:37Z</time>
      </trkpt>
      <trkpt lat="46.49622" lon="-0.55441">
        <ele>93.39</ele>
        <time>2014-09-20T13:59:45Z</time>
      </trkpt>
      <trkpt lat="46.49636" lon="-0.5543">
        <ele>95.31</ele>
        <time>2014-09-20T13:59:57Z</time>
      </trkpt>
      <trkpt lat="46.49644" lon="-0.55422">
        <ele>96.27</ele>
        <time>2014-09-20T14:00:03Z</time>
      </trkpt>
      <trkpt lat="46.49645" lon="-0.5542">
        <ele>95.79</ele>
        <time>2014-09-20T14:00:06Z</time>
      </trkpt>
      <trkpt lat="46.4965" lon="-0.55408">
        <ele>95.79</ele>
        <time>2014-09-20T14:00:13Z</time>
      </trkpt>
      <trkpt lat="46.49657" lon="-0.55398">
        <ele>96.75</ele>
        <time>2014-09-20T14:00:22Z</time>
      </trkpt>
      <trkpt lat="46.4966" lon="-0.55399">
        <ele>96.75</ele>
        <time>2014-09-20T14:00:24Z</time>
      </trkpt>
      <trkpt lat="46.49669" lon="-0.55393">
        <ele>97.23</ele>
        <time>2014-09-20T14:00:32Z</time>
      </trkpt>
      <trkpt lat="46.49671" lon="-0.55393">
        <ele>97.23</ele>
        <time>2014-09-20T14:00:34Z</time>
      </trkpt>
      <trkpt lat="46.49682" lon="-0.55383">
        <ele>97.23</ele>
        <time>2014-09-20T14:00:44Z</time>
      </trkpt>
      <trkpt lat="46.49692" lon="-0.55376">
        <ele>97.23</ele>
        <time>2014-09-20T14:00:50Z</time>
      </trkpt>
      <trkpt lat="46.49695" lon="-0.55375">
        <ele>97.23</ele>
        <time>2014-09-20T14:00:55Z</time>
      </trkpt>
      <trkpt lat="46.49702" lon="-0.55374">
        <ele>97.71</ele>
        <time>2014-09-20T14:00:59Z</time>
      </trkpt>
      <trkpt lat="46.49712" lon="-0.55376">
        <ele>99.15</ele>
        <time>2014-09-20T14:01:07Z</time>
      </trkpt>
      <trkpt lat="46.49716" lon="-0.55389">
        <ele>100.6</ele>
        <time>2014-09-20T14:01:14Z</time>
      </trkpt>
      <trkpt lat="46.4972" lon="-0.55392">
        <ele>100.6</ele>
        <time>2014-09-20T14:01:19Z</time>
      </trkpt>
      <trkpt lat="46.49729" lon="-0.55401">
        <ele>101.56</ele>
        <time>2014-09-20T14:01:29Z</time>
      </trkpt>
      <trkpt lat="46.49737" lon="-0.55414">
        <ele>103</ele>
        <time>2014-09-20T14:01:38Z</time>
      </trkpt>
      <trkpt lat="46.49744" lon="-0.55424">
        <ele>103.48</ele>
        <time>2014-09-20T14:01:45Z</time>
      </trkpt>
      <trkpt lat="46.49751" lon="-0.55434">
        <ele>102.52</ele>
        <time>2014-09-20T14:01:53Z</time>
      </trkpt>
      <trkpt lat="46.49758" lon="-0.55441">
        <ele>102.04</ele>
        <time>2014-09-20T14:02:00Z</time>
      </trkpt>
      <trkpt lat="46.49762" lon="-0.55442">
        <ele>102.04</ele>
        <time>2014-09-20T14:02:03Z</time>
      </trkpt>
      <trkpt lat="46.49768" lon="-0.55441">
        <ele>101.56</ele>
        <time>2014-09-20T14:02:09Z</time>
      </trkpt>
      <trkpt lat="46.49781" lon="-0.55432">
        <ele>100.6</ele>
        <time>2014-09-20T14:02:19Z</time>
      </trkpt>
      <trkpt lat="46.49791" lon="-0.55422">
        <ele>100.11</ele>
        <time>2014-09-20T14:02:30Z</time>
      </trkpt>
      <trkpt lat="46.49797" lon="-0.55415">
        <ele>99.63</ele>
        <time>2014-09-20T14:02:38Z</time>
      </trkpt>
      <trkpt lat="46.49797" lon="-0.55406">
        <ele>100.6</ele>
        <time>2014-09-20T14:02:43Z</time>
      </trkpt>
      <trkpt lat="46.49796" lon="-0.55399">
        <ele>100.11</ele>
        <time>2014-09-20T14:02:47Z</time>
      </trkpt>
      <trkpt lat="46.4979" lon="-0.55382">
        <ele>98.67</ele>
        <time>2014-09-20T14:02:55Z</time>
      </trkpt>
      <trkpt lat="46.49787" lon="-0.55371">
        <ele>96.75</ele>
        <time>2014-09-20T14:03:02Z</time>
      </trkpt>
      <trkpt lat="46.49783" lon="-0.55359">
        <ele>95.79</ele>
        <time>2014-09-20T14:03:07Z</time>
      </trkpt>
      <trkpt lat="46.49783" lon="-0.55335">
        <ele>94.83</ele>
        <time>2014-09-20T14:03:19Z</time>
      </trkpt>
      <trkpt lat="46.4979" lon="-0.55322">
        <ele>94.35</ele>
        <time>2014-09-20T14:03:28Z</time>
      </trkpt>
      <trkpt lat="46.49791" lon="-0.55321">
        <ele>94.35</ele>
        <time>2014-09-20T14:03:29Z</time>
      </trkpt>
      <trkpt lat="46.49799" lon="-0.55313">
        <ele>93.39</ele>
        <time>2014-09-20T14:03:38Z</time>
      </trkpt>
      <trkpt lat="46.49808" lon="-0.55306">
        <ele>92.9</ele>
        <time>2014-09-20T14:03:47Z</time>
      </trkpt>
      <trkpt lat="46.49818" lon="-0.553">
        <ele>92.9</ele>
        <time>2014-09-20T14:03:57Z</time>
      </trkpt>
      <trkpt lat="46.49829" lon="-0.55293">
        <ele>91.94</ele>
        <time>2014-09-20T14:04:06Z</time>
      </trkpt>
      <trkpt lat="46.49841" lon="-0.55288">
        <ele>90.98</ele>
        <time>2014-09-20T14:04:16Z</time>
      </trkpt>
      <trkpt lat="46.49854" lon="-0.55283">
        <ele>90.02</ele>
        <time>2014-09-20T14:04:25Z</time>
      </trkpt>
      <trkpt lat="46.49866" lon="-0.55277">
        <ele>90.02</ele>
        <time>2014-09-20T14:04:33Z</time>
      </trkpt>
      <trkpt lat="46.49877" lon="-0.55274">
        <ele>90.5</ele>
        <time>2014-09-20T14:04:41Z</time>
      </trkpt>
      <trkpt lat="46.49888" lon="-0.55271">
        <ele>89.54</ele>
        <time>2014-09-20T14:04:50Z</time>
      </trkpt>
      <trkpt lat="46.49898" lon="-0.55258">
        <ele>88.58</ele>
        <time>2014-09-20T14:05:02Z</time>
      </trkpt>
      <trkpt lat="46.49909" lon="-0.55244">
        <ele>89.06</ele>
        <time>2014-09-20T14:05:13Z</time>
      </trkpt>
      <trkpt lat="46.49922" lon="-0.55234">
        <ele>89.54</ele>
        <time>2014-09-20T14:05:23Z</time>
      </trkpt>
      <trkpt lat="46.49935" lon="-0.55225">
        <ele>90.5</ele>
        <time>2014-09-20T14:05:34Z</time>
      </trkpt>
      <trkpt lat="46.49949" lon="-0.55214">
        <ele>92.42</ele>
        <time>2014-09-20T14:05:46Z</time>
      </trkpt>
      <trkpt lat="46.49961" lon="-0.5521">
        <ele>94.35</ele>
        <time>2014-09-20T14:05:56Z</time>
      </trkpt>
      <trkpt lat="46.49963" lon="-0.5521">
        <ele>94.83</ele>
        <time>2014-09-20T14:05:58Z</time>
      </trkpt>
      <trkpt lat="46.49977" lon="-0.55205">
        <ele>96.27</ele>
        <time>2014-09-20T14:06:08Z</time>
      </trkpt>
      <trkpt lat="46.49984" lon="-0.55203">
        <ele>97.23</ele>
        <time>2014-09-20T14:06:14Z</time>
      </trkpt>
      <trkpt lat="46.49992" lon="-0.55198">
        <ele>96.27</ele>
        <time>2014-09-20T14:06:21Z</time>
      </trkpt>
      <trkpt lat="46.49996" lon="-0.55195">
        <ele>96.27</ele>
        <time>2014-09-20T14:06:24Z</time>
      </trkpt>
      <trkpt lat="46.50001" lon="-0.55193">
        <ele>95.79</ele>
        <time>2014-09-20T14:06:29Z</time>
      </trkpt>
      <trkpt lat="46.50012" lon="-0.5518">
        <ele>96.27</ele>
        <time>2014-09-20T14:06:37Z</time>
      </trkpt>
      <trkpt lat="46.50018" lon="-0.55177">
        <ele>95.79</ele>
        <time>2014-09-20T14:06:43Z</time>
      </trkpt>
      <trkpt lat="46.50031" lon="-0.55169">
        <ele>95.79</ele>
        <time>2014-09-20T14:06:54Z</time>
      </trkpt>
      <trkpt lat="46.5004" lon="-0.55162">
        <ele>95.79</ele>
        <time>2014-09-20T14:07:02Z</time>
      </trkpt>
      <trkpt lat="46.50041" lon="-0.55159">
        <ele>94.83</ele>
        <time>2014-09-20T14:07:04Z</time>
      </trkpt>
      <trkpt lat="46.50049" lon="-0.55151">
        <ele>93.87</ele>
        <time>2014-09-20T14:07:11Z</time>
      </trkpt>
      <trkpt lat="46.50062" lon="-0.55146">
        <ele>93.39</ele>
        <time>2014-09-20T14:07:21Z</time>
      </trkpt>
      <trkpt lat="46.50074" lon="-0.55141">
        <ele>92.9</ele>
        <time>2014-09-20T14:07:30Z</time>
      </trkpt>
      <trkpt lat="46.50084" lon="-0.55139">
        <ele>91.46</ele>
        <time>2014-09-20T14:07:38Z</time>
      </trkpt>
      <trkpt lat="46.50094" lon="-0.55138">
        <ele>90.98</ele>
        <time>2014-09-20T14:07:46Z</time>
      </trkpt>
      <trkpt lat="46.50105" lon="-0.55137">
        <ele>91.46</ele>
        <time>2014-09-20T14:07:54Z</time>
      </trkpt>
      <trkpt lat="46.50115" lon="-0.55135">
        <ele>91.94</ele>
        <time>2014-09-20T14:08:02Z</time>
      </trkpt>
      <trkpt lat="46.50126" lon="-0.55134">
        <ele>92.42</ele>
        <time>2014-09-20T14:08:11Z</time>
      </trkpt>
      <trkpt lat="46.50139" lon="-0.55133">
        <ele>91.46</ele>
        <time>2014-09-20T14:08:20Z</time>
      </trkpt>
      <trkpt lat="46.5015" lon="-0.55129">
        <ele>88.58</ele>
        <time>2014-09-20T14:08:28Z</time>
      </trkpt>
      <trkpt lat="46.50156" lon="-0.55123">
        <ele>87.62</ele>
        <time>2014-09-20T14:08:35Z</time>
      </trkpt>
      <trkpt lat="46.50157" lon="-0.55123">
        <ele>87.62</ele>
        <time>2014-09-20T14:08:36Z</time>
      </trkpt>
      <trkpt lat="46.50168" lon="-0.55118">
        <ele>89.06</ele>
        <time>2014-09-20T14:08:46Z</time>
      </trkpt>
      <trkpt lat="46.50177" lon="-0.55113">
        <ele>89.06</ele>
        <time>2014-09-20T14:08:53Z</time>
      </trkpt>
      <trkpt lat="46.50195" lon="-0.55106">
        <ele>88.58</ele>
        <time>2014-09-20T14:09:05Z</time>
      </trkpt>
      <trkpt lat="46.50204" lon="-0.55096">
        <ele>88.58</ele>
        <time>2014-09-20T14:09:14Z</time>
      </trkpt>
      <trkpt lat="46.50214" lon="-0.55082">
        <ele>89.54</ele>
        <time>2014-09-20T14:09:22Z</time>
      </trkpt>
      <trkpt lat="46.50218" lon="-0.55079">
        <ele>88.58</ele>
        <time>2014-09-20T14:09:26Z</time>
      </trkpt>
      <trkpt lat="46.50226" lon="-0.55068">
        <ele>88.1</ele>
        <time>2014-09-20T14:09:35Z</time>
      </trkpt>
      <trkpt lat="46.50235" lon="-0.55059">
        <ele>87.62</ele>
        <time>2014-09-20T14:09:44Z</time>
      </trkpt>
      <trkpt lat="46.50244" lon="-0.55044">
        <ele>87.14</ele>
        <time>2014-09-20T14:09:54Z</time>
      </trkpt>
      <trkpt lat="46.50254" lon="-0.55028">
        <ele>88.1</ele>
        <time>2014-09-20T14:10:04Z</time>
      </trkpt>
      <trkpt lat="46.5026" lon="-0.5502">
        <ele>88.1</ele>
        <time>2014-09-20T14:10:12Z</time>
      </trkpt>
      <trkpt lat="46.50266" lon="-0.55008">
        <ele>87.62</ele>
        <time>2014-09-20T14:10:19Z</time>
      </trkpt>
      <trkpt lat="46.50272" lon="-0.54999">
        <ele>86.18</ele>
        <time>2014-09-20T14:10:26Z</time>
      </trkpt>
      <trkpt lat="46.50284" lon="-0.54987">
        <ele>84.25</ele>
        <time>2014-09-20T14:10:38Z</time>
      </trkpt>
      <trkpt lat="46.50295" lon="-0.54975">
        <ele>83.77</ele>
        <time>2014-09-20T14:10:47Z</time>
      </trkpt>
      <trkpt lat="46.50303" lon="-0.54969">
        <ele>83.77</ele>
        <time>2014-09-20T14:10:55Z</time>
      </trkpt>
      <trkpt lat="46.50313" lon="-0.54963">
        <ele>83.29</ele>
        <time>2014-09-20T14:11:02Z</time>
      </trkpt>
      <trkpt lat="46.50323" lon="-0.54952">
        <ele>84.25</ele>
        <time>2014-09-20T14:11:11Z</time>
      </trkpt>
      <trkpt lat="46.50331" lon="-0.54944">
        <ele>84.73</ele>
        <time>2014-09-20T14:11:20Z</time>
      </trkpt>
      <trkpt lat="46.50338" lon="-0.5493">
        <ele>84.73</ele>
        <time>2014-09-20T14:11:30Z</time>
      </trkpt>
      <trkpt lat="46.50339" lon="-0.54914">
        <ele>84.73</ele>
        <time>2014-09-20T14:11:38Z</time>
      </trkpt>
      <trkpt lat="46.50339" lon="-0.54906">
        <ele>84.25</ele>
        <time>2014-09-20T14:11:44Z</time>
      </trkpt>
      <trkpt lat="46.50337" lon="-0.54894">
        <ele>85.69</ele>
        <time>2014-09-20T14:11:51Z</time>
      </trkpt>
      <trkpt lat="46.50337" lon="-0.54883">
        <ele>87.14</ele>
        <time>2014-09-20T14:12:00Z</time>
      </trkpt>
      <trkpt lat="46.50337" lon="-0.54886">
        <ele>87.62</ele>
        <time>2014-09-20T14:12:08Z</time>
      </trkpt>
      <trkpt lat="46.50337" lon="-0.54872">
        <ele>88.1</ele>
        <time>2014-09-20T14:12:14Z</time>
      </trkpt>
      <trkpt lat="46.50334" lon="-0.54861">
        <ele>89.06</ele>
        <time>2014-09-20T14:12:23Z</time>
      </trkpt>
      <trkpt lat="46.50332" lon="-0.54854">
        <ele>89.54</ele>
        <time>2014-09-20T14:12:32Z</time>
      </trkpt>
      <trkpt lat="46.50329" lon="-0.54837">
        <ele>90.5</ele>
        <time>2014-09-20T14:12:42Z</time>
      </trkpt>
      <trkpt lat="46.50325" lon="-0.54825">
        <ele>91.46</ele>
        <time>2014-09-20T14:12:52Z</time>
      </trkpt>
      <trkpt lat="46.50325" lon="-0.54813">
        <ele>92.42</ele>
        <time>2014-09-20T14:12:58Z</time>
      </trkpt>
      <trkpt lat="46.50324" lon="-0.54803">
        <ele>92.9</ele>
        <time>2014-09-20T14:13:04Z</time>
      </trkpt>
      <trkpt lat="46.50326" lon="-0.54784">
        <ele>93.87</ele>
        <time>2014-09-20T14:13:17Z</time>
      </trkpt>
      <trkpt lat="46.50326" lon="-0.54779">
        <ele>94.83</ele>
        <time>2014-09-20T14:13:27Z</time>
      </trkpt>
      <trkpt lat="46.50326" lon="-0.54777">
        <ele>95.31</ele>
        <time>2014-09-20T14:13:35Z</time>
      </trkpt>
      <trkpt lat="46.50326" lon="-0.54776">
        <ele>95.31</ele>
        <time>2014-09-20T14:13:36Z</time>
      </trkpt>
      <trkpt lat="46.50328" lon="-0.5476">
        <ele>95.31</ele>
        <time>2014-09-20T14:13:45Z</time>
      </trkpt>
      <trkpt lat="46.50328" lon="-0.54743">
        <ele>95.79</ele>
        <time>2014-09-20T14:13:53Z</time>
      </trkpt>
      <trkpt lat="46.5033" lon="-0.54727">
        <ele>95.31</ele>
        <time>2014-09-20T14:14:02Z</time>
      </trkpt>
      <trkpt lat="46.50332" lon="-0.54713">
        <ele>96.75</ele>
        <time>2014-09-20T14:14:07Z</time>
      </trkpt>
      <trkpt lat="46.50333" lon="-0.547">
        <ele>96.75</ele>
        <time>2014-09-20T14:14:15Z</time>
      </trkpt>
      <trkpt lat="46.50336" lon="-0.54687">
        <ele>97.23</ele>
        <time>2014-09-20T14:14:23Z</time>
      </trkpt>
      <trkpt lat="46.50338" lon="-0.54669">
        <ele>97.71</ele>
        <time>2014-09-20T14:14:33Z</time>
      </trkpt>
      <trkpt lat="46.5034" lon="-0.54653">
        <ele>98.67</ele>
        <time>2014-09-20T14:14:42Z</time>
      </trkpt>
      <trkpt lat="46.50342" lon="-0.54634">
        <ele>99.15</ele>
        <time>2014-09-20T14:14:52Z</time>
      </trkpt>
      <trkpt lat="46.50345" lon="-0.5462">
        <ele>100.11</ele>
        <time>2014-09-20T14:14:58Z</time>
      </trkpt>
      <trkpt lat="46.50347" lon="-0.54606">
        <ele>103</ele>
        <time>2014-09-20T14:15:06Z</time>
      </trkpt>
      <trkpt lat="46.50348" lon="-0.54605">
        <ele>103.96</ele>
        <time>2014-09-20T14:15:10Z</time>
      </trkpt>
      <trkpt lat="46.50354" lon="-0.54592">
        <ele>106.36</ele>
        <time>2014-09-20T14:15:16Z</time>
      </trkpt>
      <trkpt lat="46.50357" lon="-0.54585">
        <ele>107.32</ele>
        <time>2014-09-20T14:15:22Z</time>
      </trkpt>
      <trkpt lat="46.5036" lon="-0.54574">
        <ele>107.81</ele>
        <time>2014-09-20T14:15:28Z</time>
      </trkpt>
      <trkpt lat="46.50365" lon="-0.54559">
        <ele>107.81</ele>
        <time>2014-09-20T14:15:37Z</time>
      </trkpt>
      <trkpt lat="46.50368" lon="-0.54549">
        <ele>107.81</ele>
        <time>2014-09-20T14:15:43Z</time>
      </trkpt>
      <trkpt lat="46.50371" lon="-0.54534">
        <ele>109.25</ele>
        <time>2014-09-20T14:15:51Z</time>
      </trkpt>
      <trkpt lat="46.50373" lon="-0.54523">
        <ele>110.69</ele>
        <time>2014-09-20T14:15:58Z</time>
      </trkpt>
      <trkpt lat="46.50371" lon="-0.54511">
        <ele>111.17</ele>
        <time>2014-09-20T14:16:05Z</time>
      </trkpt>
      <trkpt lat="46.50369" lon="-0.54502">
        <ele>111.17</ele>
        <time>2014-09-20T14:16:11Z</time>
      </trkpt>
      <trkpt lat="46.50362" lon="-0.54487">
        <ele>112.61</ele>
        <time>2014-09-20T14:16:21Z</time>
      </trkpt>
      <trkpt lat="46.50354" lon="-0.54472">
        <ele>114.05</ele>
        <time>2014-09-20T14:16:31Z</time>
      </trkpt>
      <trkpt lat="46.50349" lon="-0.54462">
        <ele>115.01</ele>
        <time>2014-09-20T14:16:38Z</time>
      </trkpt>
      <trkpt lat="46.50342" lon="-0.54445">
        <ele>115.98</ele>
        <time>2014-09-20T14:16:49Z</time>
      </trkpt>
      <trkpt lat="46.5034" lon="-0.54439">
        <ele>114.53</ele>
        <time>2014-09-20T14:16:54Z</time>
      </trkpt>
      <trkpt lat="46.50339" lon="-0.54424">
        <ele>115.5</ele>
        <time>2014-09-20T14:17:01Z</time>
      </trkpt>
      <trkpt lat="46.5034" lon="-0.54423">
        <ele>115.98</ele>
        <time>2014-09-20T14:17:02Z</time>
      </trkpt>
      <trkpt lat="46.5034" lon="-0.54408">
        <ele>117.42</ele>
        <time>2014-09-20T14:17:11Z</time>
      </trkpt>
      <trkpt lat="46.50341" lon="-0.54388">
        <ele>116.94</ele>
        <time>2014-09-20T14:17:20Z</time>
      </trkpt>
      <trkpt lat="46.50342" lon="-0.54384">
        <ele>115.5</ele>
        <time>2014-09-20T14:17:24Z</time>
      </trkpt>
      <trkpt lat="46.50339" lon="-0.5437">
        <ele>114.05</ele>
        <time>2014-09-20T14:17:30Z</time>
      </trkpt>
      <trkpt lat="46.5034" lon="-0.54362">
        <ele>114.05</ele>
        <time>2014-09-20T14:17:37Z</time>
      </trkpt>
      <trkpt lat="46.50339" lon="-0.54352">
        <ele>113.09</ele>
        <time>2014-09-20T14:17:44Z</time>
      </trkpt>
      <trkpt lat="46.50337" lon="-0.54334">
        <ele>110.21</ele>
        <time>2014-09-20T14:17:54Z</time>
      </trkpt>
      <trkpt lat="46.5033" lon="-0.54316">
        <ele>107.81</ele>
        <time>2014-09-20T14:18:05Z</time>
      </trkpt>
      <trkpt lat="46.5033" lon="-0.54305">
        <ele>107.81</ele>
        <time>2014-09-20T14:18:12Z</time>
      </trkpt>
      <trkpt lat="46.50331" lon="-0.54298">
        <ele>107.32</ele>
        <time>2014-09-20T14:18:16Z</time>
      </trkpt>
      <trkpt lat="46.5033" lon="-0.5429">
        <ele>106.84</ele>
        <time>2014-09-20T14:18:20Z</time>
      </trkpt>
      <trkpt lat="46.50331" lon="-0.5428">
        <ele>106.84</ele>
        <time>2014-09-20T14:18:26Z</time>
      </trkpt>
      <trkpt lat="46.50341" lon="-0.54271">
        <ele>106.84</ele>
        <time>2014-09-20T14:18:35Z</time>
      </trkpt>
      <trkpt lat="46.50352" lon="-0.54262">
        <ele>106.84</ele>
        <time>2014-09-20T14:18:47Z</time>
      </trkpt>
      <trkpt lat="46.50355" lon="-0.54258">
        <ele>106.84</ele>
        <time>2014-09-20T14:18:50Z</time>
      </trkpt>
      <trkpt lat="46.50365" lon="-0.54243">
        <ele>107.81</ele>
        <time>2014-09-20T14:19:01Z</time>
      </trkpt>
      <trkpt lat="46.50373" lon="-0.54232">
        <ele>110.21</ele>
        <time>2014-09-20T14:19:10Z</time>
      </trkpt>
      <trkpt lat="46.50381" lon="-0.54221">
        <ele>110.69</ele>
        <time>2014-09-20T14:19:19Z</time>
      </trkpt>
      <trkpt lat="46.50386" lon="-0.54218">
        <ele>109.73</ele>
        <time>2014-09-20T14:19:24Z</time>
      </trkpt>
      <trkpt lat="46.50394" lon="-0.54208">
        <ele>110.69</ele>
        <time>2014-09-20T14:19:31Z</time>
      </trkpt>
      <trkpt lat="46.50395" lon="-0.54205">
        <ele>109.25</ele>
        <time>2014-09-20T14:19:33Z</time>
      </trkpt>
      <trkpt lat="46.50403" lon="-0.54196">
        <ele>109.25</ele>
        <time>2014-09-20T14:19:39Z</time>
      </trkpt>
      <trkpt lat="46.50404" lon="-0.54194">
        <ele>107.81</ele>
        <time>2014-09-20T14:19:41Z</time>
      </trkpt>
      <trkpt lat="46.50407" lon="-0.54189">
        <ele>107.32</ele>
        <time>2014-09-20T14:19:45Z</time>
      </trkpt>
      <trkpt lat="46.50414" lon="-0.54179">
        <ele>106.36</ele>
        <time>2014-09-20T14:19:53Z</time>
      </trkpt>
      <trkpt lat="46.5042" lon="-0.54162">
        <ele>110.21</ele>
        <time>2014-09-20T14:20:03Z</time>
      </trkpt>
      <trkpt lat="46.50421" lon="-0.54161">
        <ele>110.69</ele>
        <time>2014-09-20T14:20:04Z</time>
      </trkpt>
      <trkpt lat="46.50427" lon="-0.54154">
        <ele>112.61</ele>
        <time>2014-09-20T14:20:10Z</time>
      </trkpt>
      <trkpt lat="46.50438" lon="-0.54142">
        <ele>114.05</ele>
        <time>2014-09-20T14:20:19Z</time>
      </trkpt>
      <trkpt lat="46.50445" lon="-0.5413">
        <ele>114.05</ele>
        <time>2014-09-20T14:20:29Z</time>
      </trkpt>
      <trkpt lat="46.50454" lon="-0.54123">
        <ele>114.05</ele>
        <time>2014-09-20T14:20:37Z</time>
      </trkpt>
      <trkpt lat="46.5046" lon="-0.54116">
        <ele>112.61</ele>
        <time>2014-09-20T14:20:44Z</time>
      </trkpt>
      <trkpt lat="46.50464" lon="-0.54115">
        <ele>111.65</ele>
        <time>2014-09-20T14:20:48Z</time>
      </trkpt>
      <trkpt lat="46.50466" lon="-0.54115">
        <ele>110.21</ele>
        <time>2014-09-20T14:20:50Z</time>
      </trkpt>
      <trkpt lat="46.50473" lon="-0.54111">
        <ele>110.21</ele>
        <time>2014-09-20T14:20:55Z</time>
      </trkpt>
      <trkpt lat="46.50482" lon="-0.54105">
        <ele>109.73</ele>
        <time>2014-09-20T14:21:03Z</time>
      </trkpt>
      <trkpt lat="46.50488" lon="-0.54097">
        <ele>108.77</ele>
        <time>2014-09-20T14:21:08Z</time>
      </trkpt>
      <trkpt lat="46.5049" lon="-0.54091">
        <ele>108.29</ele>
        <time>2014-09-20T14:21:12Z</time>
      </trkpt>
      <trkpt lat="46.50488" lon="-0.54075">
        <ele>107.32</ele>
        <time>2014-09-20T14:21:22Z</time>
      </trkpt>
      <trkpt lat="46.50486" lon="-0.54063">
        <ele>107.32</ele>
        <time>2014-09-20T14:21:30Z</time>
      </trkpt>
      <trkpt lat="46.50485" lon="-0.54061">
        <ele>106.84</ele>
        <time>2014-09-20T14:21:36Z</time>
      </trkpt>
      <trkpt lat="46.50485" lon="-0.54059">
        <ele>106.84</ele>
        <time>2014-09-20T14:21:42Z</time>
      </trkpt>
      <trkpt lat="46.50485" lon="-0.5406">
        <ele>107.32</ele>
        <time>2014-09-20T14:21:59Z</time>
      </trkpt>
      <trkpt lat="46.50484" lon="-0.54059">
        <ele>107.81</ele>
        <time>2014-09-20T14:22:07Z</time>
      </trkpt>
      <trkpt lat="46.5048" lon="-0.54041">
        <ele>107.32</ele>
        <time>2014-09-20T14:22:19Z</time>
      </trkpt>
      <trkpt lat="46.50476" lon="-0.54026">
        <ele>107.81</ele>
        <time>2014-09-20T14:22:27Z</time>
      </trkpt>
      <trkpt lat="46.50473" lon="-0.5401">
        <ele>107.32</ele>
        <time>2014-09-20T14:22:35Z</time>
      </trkpt>
      <trkpt lat="46.5047" lon="-0.54005">
        <ele>106.36</ele>
        <time>2014-09-20T14:22:39Z</time>
      </trkpt>
      <trkpt lat="46.50471" lon="-0.54001">
        <ele>105.4</ele>
        <time>2014-09-20T14:22:42Z</time>
      </trkpt>
      <trkpt lat="46.50466" lon="-0.53982">
        <ele>103.48</ele>
        <time>2014-09-20T14:22:50Z</time>
      </trkpt>
      <trkpt lat="46.50465" lon="-0.53976">
        <ele>104.44</ele>
        <time>2014-09-20T14:22:55Z</time>
      </trkpt>
      <trkpt lat="46.50465" lon="-0.53973">
        <ele>104.92</ele>
        <time>2014-09-20T14:22:57Z</time>
      </trkpt>
      <trkpt lat="46.50458" lon="-0.53956">
        <ele>107.81</ele>
        <time>2014-09-20T14:23:04Z</time>
      </trkpt>
      <trkpt lat="46.50457" lon="-0.53947">
        <ele>108.77</ele>
        <time>2014-09-20T14:23:11Z</time>
      </trkpt>
      <trkpt lat="46.50457" lon="-0.53928">
        <ele>107.81</ele>
        <time>2014-09-20T14:23:20Z</time>
      </trkpt>
      <trkpt lat="46.50453" lon="-0.53915">
        <ele>106.84</ele>
        <time>2014-09-20T14:23:26Z</time>
      </trkpt>
      <trkpt lat="46.50451" lon="-0.53909">
        <ele>107.32</ele>
        <time>2014-09-20T14:23:30Z</time>
      </trkpt>
      <trkpt lat="46.5045" lon="-0.539">
        <ele>107.81</ele>
        <time>2014-09-20T14:23:35Z</time>
      </trkpt>
      <trkpt lat="46.50451" lon="-0.53883">
        <ele>106.36</ele>
        <time>2014-09-20T14:23:44Z</time>
      </trkpt>
      <trkpt lat="46.5045" lon="-0.53871">
        <ele>105.4</ele>
        <time>2014-09-20T14:23:52Z</time>
      </trkpt>
      <trkpt lat="46.50449" lon="-0.53854">
        <ele>104.92</ele>
        <time>2014-09-20T14:23:58Z</time>
      </trkpt>
      <trkpt lat="46.50449" lon="-0.53829">
        <ele>104.92</ele>
        <time>2014-09-20T14:24:10Z</time>
      </trkpt>
      <trkpt lat="46.50452" lon="-0.53811">
        <ele>104.92</ele>
        <time>2014-09-20T14:24:20Z</time>
      </trkpt>
      <trkpt lat="46.50452" lon="-0.53808">
        <ele>105.4</ele>
        <time>2014-09-20T14:24:22Z</time>
      </trkpt>
      <trkpt lat="46.50454" lon="-0.53797">
        <ele>105.88</ele>
        <time>2014-09-20T14:24:29Z</time>
      </trkpt>
      <trkpt lat="46.50455" lon="-0.53797">
        <ele>106.36</ele>
        <time>2014-09-20T14:24:41Z</time>
      </trkpt>
      <trkpt lat="46.50455" lon="-0.53797">
        <ele>106.36</ele>
        <time>2014-09-20T14:24:48Z</time>
      </trkpt>
      <trkpt lat="46.50458" lon="-0.53786">
        <ele>106.36</ele>
        <time>2014-09-20T14:24:56Z</time>
      </trkpt>
      <trkpt lat="46.50461" lon="-0.53777">
        <ele>106.84</ele>
        <time>2014-09-20T14:25:02Z</time>
      </trkpt>
      <trkpt lat="46.50461" lon="-0.53779">
        <ele>106.84</ele>
        <time>2014-09-20T14:25:10Z</time>
      </trkpt>
      <trkpt lat="46.50461" lon="-0.53779">
        <ele>106.84</ele>
        <time>2014-09-20T14:25:32Z</time>
      </trkpt>
      <trkpt lat="46.50462" lon="-0.53778">
        <ele>106.84</ele>
        <time>2014-09-20T14:26:02Z</time>
      </trkpt>
      <trkpt lat="46.50463" lon="-0.53779">
        <ele>106.84</ele>
        <time>2014-09-20T14:26:32Z</time>
      </trkpt>
      <trkpt lat="46.50464" lon="-0.53777">
        <ele>106.84</ele>
        <time>2014-09-20T14:26:41Z</time>
      </trkpt>
      <trkpt lat="46.50466" lon="-0.53768">
        <ele>105.4</ele>
        <time>2014-09-20T14:26:51Z</time>
      </trkpt>
      <trkpt lat="46.50471" lon="-0.53757">
        <ele>105.88</ele>
        <time>2014-09-20T14:27:00Z</time>
      </trkpt>
      <trkpt lat="46.50474" lon="-0.53741">
        <ele>105.4</ele>
        <time>2014-09-20T14:27:10Z</time>
      </trkpt>
      <trkpt lat="46.50479" lon="-0.53727">
        <ele>105.4</ele>
        <time>2014-09-20T14:27:17Z</time>
      </trkpt>
      <trkpt lat="46.50486" lon="-0.53708">
        <ele>105.88</ele>
        <time>2014-09-20T14:27:26Z</time>
      </trkpt>
      <trkpt lat="46.50492" lon="-0.53695">
        <ele>105.88</ele>
        <time>2014-09-20T14:27:34Z</time>
      </trkpt>
      <trkpt lat="46.50496" lon="-0.53689">
        <ele>106.84</ele>
        <time>2014-09-20T14:27:41Z</time>
      </trkpt>
      <trkpt lat="46.50497" lon="-0.53688">
        <ele>106.84</ele>
        <time>2014-09-20T14:27:42Z</time>
      </trkpt>
      <trkpt lat="46.50505" lon="-0.53673">
        <ele>108.77</ele>
        <time>2014-09-20T14:27:49Z</time>
      </trkpt>
      <trkpt lat="46.50512" lon="-0.53662">
        <ele>106.84</ele>
        <time>2014-09-20T14:27:57Z</time>
      </trkpt>
      <trkpt lat="46.50513" lon="-0.53655">
        <ele>106.84</ele>
        <time>2014-09-20T14:28:01Z</time>
      </trkpt>
      <trkpt lat="46.50521" lon="-0.53638">
        <ele>107.32</ele>
        <time>2014-09-20T14:28:12Z</time>
      </trkpt>
      <trkpt lat="46.50526" lon="-0.53623">
        <ele>106.36</ele>
        <time>2014-09-20T14:28:21Z</time>
      </trkpt>
      <trkpt lat="46.50528" lon="-0.53613">
        <ele>105.4</ele>
        <time>2014-09-20T14:28:30Z</time>
      </trkpt>
      <trkpt lat="46.50529" lon="-0.536">
        <ele>103.96</ele>
        <time>2014-09-20T14:28:37Z</time>
      </trkpt>
      <trkpt lat="46.50529" lon="-0.53585">
        <ele>104.92</ele>
        <time>2014-09-20T14:28:45Z</time>
      </trkpt>
      <trkpt lat="46.5053" lon="-0.53571">
        <ele>103</ele>
        <time>2014-09-20T14:28:51Z</time>
      </trkpt>
      <trkpt lat="46.50529" lon="-0.53556">
        <ele>98.67</ele>
        <time>2014-09-20T14:28:59Z</time>
      </trkpt>
      <trkpt lat="46.50531" lon="-0.53544">
        <ele>100.11</ele>
        <time>2014-09-20T14:29:06Z</time>
      </trkpt>
      <trkpt lat="46.50529" lon="-0.53527">
        <ele>102.04</ele>
        <time>2014-09-20T14:29:13Z</time>
      </trkpt>
      <trkpt lat="46.50529" lon="-0.53515">
        <ele>102.52</ele>
        <time>2014-09-20T14:29:20Z</time>
      </trkpt>
      <trkpt lat="46.50528" lon="-0.53501">
        <ele>97.71</ele>
        <time>2014-09-20T14:29:26Z</time>
      </trkpt>
      <trkpt lat="46.50529" lon="-0.53491">
        <ele>94.83</ele>
        <time>2014-09-20T14:29:32Z</time>
      </trkpt>
      <trkpt lat="46.5053" lon="-0.53485">
        <ele>94.35</ele>
        <time>2014-09-20T14:29:36Z</time>
      </trkpt>
      <trkpt lat="46.50529" lon="-0.53472">
        <ele>95.79</ele>
        <time>2014-09-20T14:29:42Z</time>
      </trkpt>
      <trkpt lat="46.50532" lon="-0.53446">
        <ele>95.79</ele>
        <time>2014-09-20T14:29:54Z</time>
      </trkpt>
      <trkpt lat="46.50536" lon="-0.53427">
        <ele>96.27</ele>
        <time>2014-09-20T14:30:04Z</time>
      </trkpt>
      <trkpt lat="46.50538" lon="-0.5342">
        <ele>95.79</ele>
        <time>2014-09-20T14:30:10Z</time>
      </trkpt>
      <trkpt lat="46.50542" lon="-0.53411">
        <ele>95.79</ele>
        <time>2014-09-20T14:30:15Z</time>
      </trkpt>
      <trkpt lat="46.50549" lon="-0.53395">
        <ele>95.79</ele>
        <time>2014-09-20T14:30:22Z</time>
      </trkpt>
      <trkpt lat="46.5055" lon="-0.53387">
        <ele>95.79</ele>
        <time>2014-09-20T14:30:28Z</time>
      </trkpt>
      <trkpt lat="46.50555" lon="-0.53379">
        <ele>96.75</ele>
        <time>2014-09-20T14:30:33Z</time>
      </trkpt>
      <trkpt lat="46.50562" lon="-0.53363">
        <ele>97.23</ele>
        <time>2014-09-20T14:30:41Z</time>
      </trkpt>
      <trkpt lat="46.50568" lon="-0.53355">
        <ele>96.75</ele>
        <time>2014-09-20T14:30:48Z</time>
      </trkpt>
      <trkpt lat="46.50575" lon="-0.53344">
        <ele>96.75</ele>
        <time>2014-09-20T14:30:54Z</time>
      </trkpt>
      <trkpt lat="46.50583" lon="-0.53333">
        <ele>97.23</ele>
        <time>2014-09-20T14:31:00Z</time>
      </trkpt>
      <trkpt lat="46.50588" lon="-0.53322">
        <ele>97.23</ele>
        <time>2014-09-20T14:31:05Z</time>
      </trkpt>
      <trkpt lat="46.50589" lon="-0.53309">
        <ele>94.35</ele>
        <time>2014-09-20T14:31:13Z</time>
      </trkpt>
      <trkpt lat="46.50591" lon="-0.53286">
        <ele>92.9</ele>
        <time>2014-09-20T14:31:24Z</time>
      </trkpt>
      <trkpt lat="46.50593" lon="-0.53276">
        <ele>94.35</ele>
        <time>2014-09-20T14:31:29Z</time>
      </trkpt>
      <trkpt lat="46.50594" lon="-0.53262">
        <ele>94.35</ele>
        <time>2014-09-20T14:31:39Z</time>
      </trkpt>
      <trkpt lat="46.50595" lon="-0.53254">
        <ele>93.87</ele>
        <time>2014-09-20T14:31:44Z</time>
      </trkpt>
      <trkpt lat="46.50598" lon="-0.53241">
        <ele>94.35</ele>
        <time>2014-09-20T14:31:50Z</time>
      </trkpt>
      <trkpt lat="46.50601" lon="-0.53214">
        <ele>95.79</ele>
        <time>2014-09-20T14:32:01Z</time>
      </trkpt>
      <trkpt lat="46.50601" lon="-0.53196">
        <ele>93.87</ele>
        <time>2014-09-20T14:32:11Z</time>
      </trkpt>
      <trkpt lat="46.50599" lon="-0.53181">
        <ele>91.94</ele>
        <time>2014-09-20T14:32:19Z</time>
      </trkpt>
      <trkpt lat="46.50595" lon="-0.53168">
        <ele>91.46</ele>
        <time>2014-09-20T14:32:25Z</time>
      </trkpt>
      <trkpt lat="46.50591" lon="-0.53144">
        <ele>90.5</ele>
        <time>2014-09-20T14:32:38Z</time>
      </trkpt>
      <trkpt lat="46.50591" lon="-0.53135">
        <ele>89.06</ele>
        <time>2014-09-20T14:32:45Z</time>
      </trkpt>
      <trkpt lat="46.50586" lon="-0.53121">
        <ele>89.06</ele>
        <time>2014-09-20T14:32:50Z</time>
      </trkpt>
      <trkpt lat="46.50584" lon="-0.53098">
        <ele>90.5</ele>
        <time>2014-09-20T14:33:01Z</time>
      </trkpt>
      <trkpt lat="46.5058" lon="-0.53081">
        <ele>89.06</ele>
        <time>2014-09-20T14:33:10Z</time>
      </trkpt>
      <trkpt lat="46.50579" lon="-0.53065">
        <ele>89.06</ele>
        <time>2014-09-20T14:33:19Z</time>
      </trkpt>
      <trkpt lat="46.50577" lon="-0.53051">
        <ele>90.02</ele>
        <time>2014-09-20T14:33:25Z</time>
      </trkpt>
      <trkpt lat="46.50579" lon="-0.53039">
        <ele>89.54</ele>
        <time>2014-09-20T14:33:32Z</time>
      </trkpt>
      <trkpt lat="46.50583" lon="-0.53019">
        <ele>89.06</ele>
        <time>2014-09-20T14:33:43Z</time>
      </trkpt>
      <trkpt lat="46.50586" lon="-0.53007">
        <ele>88.58</ele>
        <time>2014-09-20T14:33:51Z</time>
      </trkpt>
      <trkpt lat="46.5059" lon="-0.52991">
        <ele>88.1</ele>
        <time>2014-09-20T14:34:00Z</time>
      </trkpt>
      <trkpt lat="46.50591" lon="-0.52968">
        <ele>85.69</ele>
        <time>2014-09-20T14:34:10Z</time>
      </trkpt>
      <trkpt lat="46.50585" lon="-0.52943">
        <ele>83.77</ele>
        <time>2014-09-20T14:34:22Z</time>
      </trkpt>
      <trkpt lat="46.50584" lon="-0.52936">
        <ele>82.33</ele>
        <time>2014-09-20T14:34:29Z</time>
      </trkpt>
      <trkpt lat="46.50581" lon="-0.5292">
        <ele>80.89</ele>
        <time>2014-09-20T14:34:37Z</time>
      </trkpt>
      <trkpt lat="46.50579" lon="-0.529">
        <ele>78.48</ele>
        <time>2014-09-20T14:34:47Z</time>
      </trkpt>
      <trkpt lat="46.50578" lon="-0.52885">
        <ele>77.52</ele>
        <time>2014-09-20T14:34:56Z</time>
      </trkpt>
      <trkpt lat="46.50576" lon="-0.52867">
        <ele>77.04</ele>
        <time>2014-09-20T14:35:05Z</time>
      </trkpt>
      <trkpt lat="46.50573" lon="-0.52851">
        <ele>75.6</ele>
        <time>2014-09-20T14:35:15Z</time>
      </trkpt>
      <trkpt lat="46.50573" lon="-0.52838">
        <ele>74.64</ele>
        <time>2014-09-20T14:35:23Z</time>
      </trkpt>
      <trkpt lat="46.50578" lon="-0.52817">
        <ele>74.16</ele>
        <time>2014-09-20T14:35:34Z</time>
      </trkpt>
      <trkpt lat="46.50583" lon="-0.52809">
        <ele>73.68</ele>
        <time>2014-09-20T14:35:40Z</time>
      </trkpt>
      <trkpt lat="46.5059" lon="-0.52791">
        <ele>74.64</ele>
        <time>2014-09-20T14:35:52Z</time>
      </trkpt>
      <trkpt lat="46.50592" lon="-0.52774">
        <ele>75.12</ele>
        <time>2014-09-20T14:36:01Z</time>
      </trkpt>
      <trkpt lat="46.50593" lon="-0.52753">
        <ele>75.6</ele>
        <time>2014-09-20T14:36:11Z</time>
      </trkpt>
      <trkpt lat="46.50589" lon="-0.52733">
        <ele>76.08</ele>
        <time>2014-09-20T14:36:21Z</time>
      </trkpt>
      <trkpt lat="46.50585" lon="-0.52715">
        <ele>75.12</ele>
        <time>2014-09-20T14:36:31Z</time>
      </trkpt>
      <trkpt lat="46.50578" lon="-0.52703">
        <ele>74.16</ele>
        <time>2014-09-20T14:36:40Z</time>
      </trkpt>
      <trkpt lat="46.50571" lon="-0.5269">
        <ele>72.24</ele>
        <time>2014-09-20T14:36:49Z</time>
      </trkpt>
      <trkpt lat="46.50564" lon="-0.52674">
        <ele>68.39</ele>
        <time>2014-09-20T14:37:00Z</time>
      </trkpt>
      <trkpt lat="46.50556" lon="-0.52656">
        <ele>65.03</ele>
        <time>2014-09-20T14:37:10Z</time>
      </trkpt>
      <trkpt lat="46.5055" lon="-0.5264">
        <ele>62.62</ele>
        <time>2014-09-20T14:37:21Z</time>
      </trkpt>
      <trkpt lat="46.50543" lon="-0.5263">
        <ele>60.22</ele>
        <time>2014-09-20T14:37:27Z</time>
      </trkpt>
      <trkpt lat="46.50535" lon="-0.52633">
        <ele>60.22</ele>
        <time>2014-09-20T14:37:34Z</time>
      </trkpt>
      <trkpt lat="46.50532" lon="-0.52637">
        <ele>60.7</ele>
        <time>2014-09-20T14:37:37Z</time>
      </trkpt>
      <trkpt lat="46.50522" lon="-0.52652">
        <ele>60.22</ele>
        <time>2014-09-20T14:37:47Z</time>
      </trkpt>
      <trkpt lat="46.50514" lon="-0.52663">
        <ele>60.22</ele>
        <time>2014-09-20T14:37:56Z</time>
      </trkpt>
      <trkpt lat="46.50507" lon="-0.52672">
        <ele>60.22</ele>
        <time>2014-09-20T14:38:06Z</time>
      </trkpt>
      <trkpt lat="46.50505" lon="-0.52677">
        <ele>59.74</ele>
        <time>2014-09-20T14:38:13Z</time>
      </trkpt>
      <trkpt lat="46.505" lon="-0.52684">
        <ele>59.26</ele>
        <time>2014-09-20T14:38:21Z</time>
      </trkpt>
      <trkpt lat="46.50484" lon="-0.52701">
        <ele>60.22</ele>
        <time>2014-09-20T14:38:37Z</time>
      </trkpt>
      <trkpt lat="46.50474" lon="-0.52713">
        <ele>60.7</ele>
        <time>2014-09-20T14:38:49Z</time>
      </trkpt>
      <trkpt lat="46.50462" lon="-0.52724">
        <ele>61.66</ele>
        <time>2014-09-20T14:39:00Z</time>
      </trkpt>
      <trkpt lat="46.50448" lon="-0.52741">
        <ele>62.62</ele>
        <time>2014-09-20T14:39:11Z</time>
      </trkpt>
      <trkpt lat="46.50436" lon="-0.52757">
        <ele>64.55</ele>
        <time>2014-09-20T14:39:23Z</time>
      </trkpt>
      <trkpt lat="46.50426" lon="-0.52769">
        <ele>66.95</ele>
        <time>2014-09-20T14:39:34Z</time>
      </trkpt>
      <trkpt lat="46.50412" lon="-0.52781">
        <ele>67.91</ele>
        <time>2014-09-20T14:39:44Z</time>
      </trkpt>
      <trkpt lat="46.50407" lon="-0.52787">
        <ele>69.35</ele>
        <time>2014-09-20T14:39:50Z</time>
      </trkpt>
      <trkpt lat="46.50399" lon="-0.52798">
        <ele>71.27</ele>
        <time>2014-09-20T14:39:59Z</time>
      </trkpt>
      <trkpt lat="46.50386" lon="-0.52814">
        <ele>72.72</ele>
        <time>2014-09-20T14:40:11Z</time>
      </trkpt>
      <trkpt lat="46.50374" lon="-0.52827">
        <ele>73.2</ele>
        <time>2014-09-20T14:40:21Z</time>
      </trkpt>
      <trkpt lat="46.50363" lon="-0.52838">
        <ele>74.64</ele>
        <time>2014-09-20T14:40:31Z</time>
      </trkpt>
      <trkpt lat="46.50353" lon="-0.52849">
        <ele>75.6</ele>
        <time>2014-09-20T14:40:40Z</time>
      </trkpt>
      <trkpt lat="46.50343" lon="-0.52861">
        <ele>76.08</ele>
        <time>2014-09-20T14:40:50Z</time>
      </trkpt>
      <trkpt lat="46.50333" lon="-0.52873">
        <ele>78</ele>
        <time>2014-09-20T14:41:01Z</time>
      </trkpt>
      <trkpt lat="46.50325" lon="-0.52886">
        <ele>79.45</ele>
        <time>2014-09-20T14:41:10Z</time>
      </trkpt>
      <trkpt lat="46.50316" lon="-0.52901">
        <ele>80.89</ele>
        <time>2014-09-20T14:41:20Z</time>
      </trkpt>
      <trkpt lat="46.50311" lon="-0.5291">
        <ele>82.81</ele>
        <time>2014-09-20T14:41:28Z</time>
      </trkpt>
      <trkpt lat="46.50303" lon="-0.52925">
        <ele>84.73</ele>
        <time>2014-09-20T14:41:39Z</time>
      </trkpt>
      <trkpt lat="46.50297" lon="-0.52936">
        <ele>86.66</ele>
        <time>2014-09-20T14:41:48Z</time>
      </trkpt>
      <trkpt lat="46.50292" lon="-0.52953">
        <ele>89.06</ele>
        <time>2014-09-20T14:41:59Z</time>
      </trkpt>
      <trkpt lat="46.50281" lon="-0.52962">
        <ele>91.46</ele>
        <time>2014-09-20T14:42:08Z</time>
      </trkpt>
      <trkpt lat="46.50269" lon="-0.52975">
        <ele>93.87</ele>
        <time>2014-09-20T14:42:19Z</time>
      </trkpt>
      <trkpt lat="46.50258" lon="-0.52987">
        <ele>94.35</ele>
        <time>2014-09-20T14:42:30Z</time>
      </trkpt>
      <trkpt lat="46.50249" lon="-0.52999">
        <ele>94.83</ele>
        <time>2014-09-20T14:42:39Z</time>
      </trkpt>
      <trkpt lat="46.50243" lon="-0.53012">
        <ele>95.79</ele>
        <time>2014-09-20T14:42:47Z</time>
      </trkpt>
      <trkpt lat="46.50241" lon="-0.53019">
        <ele>95.31</ele>
        <time>2014-09-20T14:42:52Z</time>
      </trkpt>
      <trkpt lat="46.50236" lon="-0.5304">
        <ele>95.79</ele>
        <time>2014-09-20T14:43:03Z</time>
      </trkpt>
      <trkpt lat="46.5023" lon="-0.53058">
        <ele>95.31</ele>
        <time>2014-09-20T14:43:13Z</time>
      </trkpt>
      <trkpt lat="46.50221" lon="-0.53075">
        <ele>96.75</ele>
        <time>2014-09-20T14:43:25Z</time>
      </trkpt>
      <trkpt lat="46.50213" lon="-0.53086">
        <ele>98.67</ele>
        <time>2014-09-20T14:43:35Z</time>
      </trkpt>
      <trkpt lat="46.502" lon="-0.53099">
        <ele>99.63</ele>
        <time>2014-09-20T14:43:47Z</time>
      </trkpt>
      <trkpt lat="46.50187" lon="-0.53105">
        <ele>101.08</ele>
        <time>2014-09-20T14:43:56Z</time>
      </trkpt>
      <trkpt lat="46.50171" lon="-0.53105">
        <ele>102.04</ele>
        <time>2014-09-20T14:44:07Z</time>
      </trkpt>
      <trkpt lat="46.50161" lon="-0.53104">
        <ele>102.04</ele>
        <time>2014-09-20T14:44:17Z</time>
      </trkpt>
      <trkpt lat="46.50151" lon="-0.53102">
        <ele>101.08</ele>
        <time>2014-09-20T14:44:24Z</time>
      </trkpt>
      <trkpt lat="46.50137" lon="-0.53101">
        <ele>101.56</ele>
        <time>2014-09-20T14:44:33Z</time>
      </trkpt>
      <trkpt lat="46.50126" lon="-0.53101">
        <ele>101.56</ele>
        <time>2014-09-20T14:44:44Z</time>
      </trkpt>
      <trkpt lat="46.50117" lon="-0.53101">
        <ele>101.08</ele>
        <time>2014-09-20T14:44:50Z</time>
      </trkpt>
      <trkpt lat="46.50106" lon="-0.53103">
        <ele>101.56</ele>
        <time>2014-09-20T14:44:56Z</time>
      </trkpt>
      <trkpt lat="46.50099" lon="-0.53103">
        <ele>102.04</ele>
        <time>2014-09-20T14:45:02Z</time>
      </trkpt>
      <trkpt lat="46.50086" lon="-0.53104">
        <ele>102.52</ele>
        <time>2014-09-20T14:45:10Z</time>
      </trkpt>
      <trkpt lat="46.50073" lon="-0.53106">
        <ele>104.44</ele>
        <time>2014-09-20T14:45:21Z</time>
      </trkpt>
      <trkpt lat="46.5006" lon="-0.53111">
        <ele>107.32</ele>
        <time>2014-09-20T14:45:32Z</time>
      </trkpt>
      <trkpt lat="46.50043" lon="-0.53117">
        <ele>108.77</ele>
        <time>2014-09-20T14:45:42Z</time>
      </trkpt>
      <trkpt lat="46.50027" lon="-0.53124">
        <ele>111.65</ele>
        <time>2014-09-20T14:45:55Z</time>
      </trkpt>
      <trkpt lat="46.50016" lon="-0.5313">
        <ele>113.57</ele>
        <time>2014-09-20T14:46:04Z</time>
      </trkpt>
      <trkpt lat="46.50002" lon="-0.53137">
        <ele>111.17</ele>
        <time>2014-09-20T14:46:15Z</time>
      </trkpt>
      <trkpt lat="46.49991" lon="-0.53139">
        <ele>111.65</ele>
        <time>2014-09-20T14:46:24Z</time>
      </trkpt>
      <trkpt lat="46.49979" lon="-0.53144">
        <ele>112.13</ele>
        <time>2014-09-20T14:46:32Z</time>
      </trkpt>
      <trkpt lat="46.49966" lon="-0.53147">
        <ele>114.05</ele>
        <time>2014-09-20T14:46:41Z</time>
      </trkpt>
      <trkpt lat="46.49953" lon="-0.53148">
        <ele>116.46</ele>
        <time>2014-09-20T14:46:51Z</time>
      </trkpt>
      <trkpt lat="46.49938" lon="-0.53149">
        <ele>119.34</ele>
        <time>2014-09-20T14:47:01Z</time>
      </trkpt>
      <trkpt lat="46.49925" lon="-0.53151">
        <ele>121.74</ele>
        <time>2014-09-20T14:47:11Z</time>
      </trkpt>
      <trkpt lat="46.49914" lon="-0.53159">
        <ele>121.26</ele>
        <time>2014-09-20T14:47:20Z</time>
      </trkpt>
      <trkpt lat="46.49905" lon="-0.53166">
        <ele>119.34</ele>
        <time>2014-09-20T14:47:29Z</time>
      </trkpt>
      <trkpt lat="46.49899" lon="-0.53169">
        <ele>115.5</ele>
        <time>2014-09-20T14:47:36Z</time>
      </trkpt>
      <trkpt lat="46.4989" lon="-0.53176">
        <ele>110.69</ele>
        <time>2014-09-20T14:47:43Z</time>
      </trkpt>
      <trkpt lat="46.49884" lon="-0.53181">
        <ele>105.88</ele>
        <time>2014-09-20T14:47:49Z</time>
      </trkpt>
      <trkpt lat="46.49872" lon="-0.53187">
        <ele>103.48</ele>
        <time>2014-09-20T14:47:55Z</time>
      </trkpt>
      <trkpt lat="46.49866" lon="-0.53189">
        <ele>102.52</ele>
        <time>2014-09-20T14:48:01Z</time>
      </trkpt>
      <trkpt lat="46.49859" lon="-0.53193">
        <ele>99.63</ele>
        <time>2014-09-20T14:48:07Z</time>
      </trkpt>
      <trkpt lat="46.49848" lon="-0.53198">
        <ele>99.15</ele>
        <time>2014-09-20T14:48:13Z</time>
      </trkpt>
      <trkpt lat="46.49843" lon="-0.53202">
        <ele>98.67</ele>
        <time>2014-09-20T14:48:19Z</time>
      </trkpt>
      <trkpt lat="46.49834" lon="-0.53208">
        <ele>100.11</ele>
        <time>2014-09-20T14:48:28Z</time>
      </trkpt>
      <trkpt lat="46.49824" lon="-0.53215">
        <ele>102.04</ele>
        <time>2014-09-20T14:48:37Z</time>
      </trkpt>
      <trkpt lat="46.49812" lon="-0.53224">
        <ele>103</ele>
        <time>2014-09-20T14:48:46Z</time>
      </trkpt>
      <trkpt lat="46.49802" lon="-0.53232">
        <ele>104.44</ele>
        <time>2014-09-20T14:48:55Z</time>
      </trkpt>
      <trkpt lat="46.49797" lon="-0.53239">
        <ele>104.44</ele>
        <time>2014-09-20T14:49:04Z</time>
      </trkpt>
      <trkpt lat="46.49788" lon="-0.53243">
        <ele>104.92</ele>
        <time>2014-09-20T14:49:10Z</time>
      </trkpt>
      <trkpt lat="46.4978" lon="-0.53247">
        <ele>105.88</ele>
        <time>2014-09-20T14:49:15Z</time>
      </trkpt>
      <trkpt lat="46.49764" lon="-0.53257">
        <ele>104.92</ele>
        <time>2014-09-20T14:49:26Z</time>
      </trkpt>
      <trkpt lat="46.49757" lon="-0.53261">
        <ele>104.44</ele>
        <time>2014-09-20T14:49:35Z</time>
      </trkpt>
      <trkpt lat="46.49755" lon="-0.53263">
        <ele>103.96</ele>
        <time>2014-09-20T14:49:38Z</time>
      </trkpt>
      <trkpt lat="46.49743" lon="-0.53272">
        <ele>104.44</ele>
        <time>2014-09-20T14:49:45Z</time>
      </trkpt>
      <trkpt lat="46.4973" lon="-0.53278">
        <ele>105.4</ele>
        <time>2014-09-20T14:49:55Z</time>
      </trkpt>
      <trkpt lat="46.4972" lon="-0.53287">
        <ele>108.29</ele>
        <time>2014-09-20T14:50:05Z</time>
      </trkpt>
      <trkpt lat="46.4971" lon="-0.53292">
        <ele>110.69</ele>
        <time>2014-09-20T14:50:13Z</time>
      </trkpt>
      <trkpt lat="46.49702" lon="-0.53292">
        <ele>113.57</ele>
        <time>2014-09-20T14:50:19Z</time>
      </trkpt>
      <trkpt lat="46.49695" lon="-0.5328">
        <ele>115.5</ele>
        <time>2014-09-20T14:50:28Z</time>
      </trkpt>
      <trkpt lat="46.49686" lon="-0.53254">
        <ele>116.94</ele>
        <time>2014-09-20T14:50:41Z</time>
      </trkpt>
      <trkpt lat="46.49681" lon="-0.53244">
        <ele>115.5</ele>
        <time>2014-09-20T14:50:48Z</time>
      </trkpt>
      <trkpt lat="46.49672" lon="-0.53231">
        <ele>115.01</ele>
        <time>2014-09-20T14:50:55Z</time>
      </trkpt>
      <trkpt lat="46.49667" lon="-0.53223">
        <ele>114.05</ele>
        <time>2014-09-20T14:51:02Z</time>
      </trkpt>
      <trkpt lat="46.49662" lon="-0.53212">
        <ele>111.65</ele>
        <time>2014-09-20T14:51:08Z</time>
      </trkpt>
      <trkpt lat="46.49657" lon="-0.53202">
        <ele>110.21</ele>
        <time>2014-09-20T14:51:14Z</time>
      </trkpt>
      <trkpt lat="46.49653" lon="-0.53191">
        <ele>107.81</ele>
        <time>2014-09-20T14:51:21Z</time>
      </trkpt>
      <trkpt lat="46.49649" lon="-0.53178">
        <ele>106.84</ele>
        <time>2014-09-20T14:51:27Z</time>
      </trkpt>
      <trkpt lat="46.49646" lon="-0.53173">
        <ele>106.36</ele>
        <time>2014-09-20T14:51:33Z</time>
      </trkpt>
      <trkpt lat="46.4964" lon="-0.53164">
        <ele>105.88</ele>
        <time>2014-09-20T14:51:38Z</time>
      </trkpt>
      <trkpt lat="46.49635" lon="-0.53153">
        <ele>104.44</ele>
        <time>2014-09-20T14:51:46Z</time>
      </trkpt>
      <trkpt lat="46.49631" lon="-0.5314">
        <ele>103.48</ele>
        <time>2014-09-20T14:51:54Z</time>
      </trkpt>
      <trkpt lat="46.49625" lon="-0.53128">
        <ele>103</ele>
        <time>2014-09-20T14:52:01Z</time>
      </trkpt>
      <trkpt lat="46.49627" lon="-0.53122">
        <ele>101.08</ele>
        <time>2014-09-20T14:52:05Z</time>
      </trkpt>
      <trkpt lat="46.49631" lon="-0.53116">
        <ele>99.63</ele>
        <time>2014-09-20T14:52:10Z</time>
      </trkpt>
      <trkpt lat="46.4964" lon="-0.53103">
        <ele>96.75</ele>
        <time>2014-09-20T14:52:19Z</time>
      </trkpt>
      <trkpt lat="46.49633" lon="-0.53086">
        <ele>94.83</ele>
        <time>2014-09-20T14:52:28Z</time>
      </trkpt>
      <trkpt lat="46.49629" lon="-0.53082">
        <ele>94.83</ele>
        <time>2014-09-20T14:52:32Z</time>
      </trkpt>
      <trkpt lat="46.49617" lon="-0.53076">
        <ele>95.31</ele>
        <time>2014-09-20T14:52:42Z</time>
      </trkpt>
      <trkpt lat="46.49604" lon="-0.53071">
        <ele>95.31</ele>
        <time>2014-09-20T14:52:52Z</time>
      </trkpt>
      <trkpt lat="46.49593" lon="-0.53065">
        <ele>94.83</ele>
        <time>2014-09-20T14:53:02Z</time>
      </trkpt>
      <trkpt lat="46.4958" lon="-0.53055">
        <ele>92.9</ele>
        <time>2014-09-20T14:53:13Z</time>
      </trkpt>
      <trkpt lat="46.49571" lon="-0.53048">
        <ele>91.94</ele>
        <time>2014-09-20T14:53:22Z</time>
      </trkpt>
      <trkpt lat="46.49563" lon="-0.53043">
        <ele>90.98</ele>
        <time>2014-09-20T14:53:28Z</time>
      </trkpt>
      <trkpt lat="46.49553" lon="-0.53026">
        <ele>88.58</ele>
        <time>2014-09-20T14:53:39Z</time>
      </trkpt>
      <trkpt lat="46.49545" lon="-0.53015">
        <ele>85.21</ele>
        <time>2014-09-20T14:53:49Z</time>
      </trkpt>
      <trkpt lat="46.49542" lon="-0.53005">
        <ele>85.69</ele>
        <time>2014-09-20T14:55:28Z</time>
      </trkpt>
      <trkpt lat="46.49532" lon="-0.52996">
        <ele>86.18</ele>
        <time>2014-09-20T14:55:39Z</time>
      </trkpt>
      <trkpt lat="46.49525" lon="-0.52984">
        <ele>85.69</ele>
        <time>2014-09-20T14:55:53Z</time>
      </trkpt>
      <trkpt lat="46.49515" lon="-0.52974">
        <ele>85.21</ele>
        <time>2014-09-20T14:56:05Z</time>
      </trkpt>
      <trkpt lat="46.49502" lon="-0.52962">
        <ele>84.73</ele>
        <time>2014-09-20T14:56:19Z</time>
      </trkpt>
      <trkpt lat="46.49489" lon="-0.52946">
        <ele>84.25</ele>
        <time>2014-09-20T14:56:32Z</time>
      </trkpt>
      <trkpt lat="46.49472" lon="-0.52931">
        <ele>83.29</ele>
        <time>2014-09-20T14:56:47Z</time>
      </trkpt>
      <trkpt lat="46.49462" lon="-0.52922">
        <ele>82.81</ele>
        <time>2014-09-20T14:56:58Z</time>
      </trkpt>
      <trkpt lat="46.49453" lon="-0.52917">
        <ele>82.33</ele>
        <time>2014-09-20T14:57:06Z</time>
      </trkpt>
      <trkpt lat="46.49442" lon="-0.52907">
        <ele>82.81</ele>
        <time>2014-09-20T14:57:17Z</time>
      </trkpt>
      <trkpt lat="46.49434" lon="-0.52896">
        <ele>83.29</ele>
        <time>2014-09-20T14:57:30Z</time>
      </trkpt>
      <trkpt lat="46.49433" lon="-0.52891">
        <ele>83.29</ele>
        <time>2014-09-20T14:57:43Z</time>
      </trkpt>
      <trkpt lat="46.49432" lon="-0.5289">
        <ele>83.29</ele>
        <time>2014-09-20T14:58:02Z</time>
      </trkpt>
      <trkpt lat="46.49431" lon="-0.52889">
        <ele>84.73</ele>
        <time>2014-09-20T14:58:12Z</time>
      </trkpt>
      <trkpt lat="46.49431" lon="-0.52885">
        <ele>84.73</ele>
        <time>2014-09-20T14:58:20Z</time>
      </trkpt>
      <trkpt lat="46.49429" lon="-0.52883">
        <ele>84.73</ele>
        <time>2014-09-20T14:58:27Z</time>
      </trkpt>
      <trkpt lat="46.49425" lon="-0.52874">
        <ele>84.73</ele>
        <time>2014-09-20T14:58:35Z</time>
      </trkpt>
      <trkpt lat="46.49423" lon="-0.5287">
        <ele>84.25</ele>
        <time>2014-09-20T14:58:46Z</time>
      </trkpt>
      <trkpt lat="46.49414" lon="-0.52861">
        <ele>83.29</ele>
        <time>2014-09-20T14:59:03Z</time>
      </trkpt>
      <trkpt lat="46.49411" lon="-0.52858">
        <ele>82.81</ele>
        <time>2014-09-20T14:59:13Z</time>
      </trkpt>
      <trkpt lat="46.49408" lon="-0.52858">
        <ele>82.33</ele>
        <time>2014-09-20T14:59:20Z</time>
      </trkpt>
      <trkpt lat="46.49401" lon="-0.52851">
        <ele>82.33</ele>
        <time>2014-09-20T14:59:29Z</time>
      </trkpt>
      <trkpt lat="46.49395" lon="-0.52847">
        <ele>82.33</ele>
        <time>2014-09-20T14:59:39Z</time>
      </trkpt>
      <trkpt lat="46.49395" lon="-0.52847">
        <ele>81.85</ele>
        <time>2014-09-20T14:59:49Z</time>
      </trkpt>
      <trkpt lat="46.49392" lon="-0.52841">
        <ele>81.37</ele>
        <time>2014-09-20T15:00:11Z</time>
      </trkpt>
      <trkpt lat="46.49384" lon="-0.52832">
        <ele>80.89</ele>
        <time>2014-09-20T15:00:24Z</time>
      </trkpt>
      <trkpt lat="46.49377" lon="-0.52823">
        <ele>80.41</ele>
        <time>2014-09-20T15:00:36Z</time>
      </trkpt>
      <trkpt lat="46.49373" lon="-0.52817">
        <ele>80.41</ele>
        <time>2014-09-20T15:00:47Z</time>
      </trkpt>
      <trkpt lat="46.4937" lon="-0.52807">
        <ele>79.45</ele>
        <time>2014-09-20T15:00:55Z</time>
      </trkpt>
      <trkpt lat="46.4937" lon="-0.52794">
        <ele>78.48</ele>
        <time>2014-09-20T15:01:07Z</time>
      </trkpt>
      <trkpt lat="46.49371" lon="-0.52785">
        <ele>77.04</ele>
        <time>2014-09-20T15:01:18Z</time>
      </trkpt>
      <trkpt lat="46.49373" lon="-0.52769">
        <ele>75.6</ele>
        <time>2014-09-20T15:01:32Z</time>
      </trkpt>
      <trkpt lat="46.49372" lon="-0.52756">
        <ele>74.64</ele>
        <time>2014-09-20T15:01:43Z</time>
      </trkpt>
      <trkpt lat="46.49365" lon="-0.52748">
        <ele>73.2</ele>
        <time>2014-09-20T15:01:52Z</time>
      </trkpt>
      <trkpt lat="46.49365" lon="-0.52748">
        <ele>73.2</ele>
        <time>2014-09-20T15:02:01Z</time>
      </trkpt>
      <trkpt lat="46.49372" lon="-0.52758">
        <ele>73.2</ele>
        <time>2014-09-20T15:02:13Z</time>
      </trkpt>
      <trkpt lat="46.49369" lon="-0.52754">
        <ele>72.72</ele>
        <time>2014-09-20T15:02:35Z</time>
      </trkpt>
      <trkpt lat="46.49362" lon="-0.52748">
        <ele>71.76</ele>
        <time>2014-09-20T15:02:50Z</time>
      </trkpt>
      <trkpt lat="46.49358" lon="-0.52748">
        <ele>71.27</ele>
        <time>2014-09-20T15:02:56Z</time>
      </trkpt>
      <trkpt lat="46.49342" lon="-0.52755">
        <ele>69.35</ele>
        <time>2014-09-20T15:03:10Z</time>
      </trkpt>
      <trkpt lat="46.49332" lon="-0.5276">
        <ele>69.35</ele>
        <time>2014-09-20T15:03:19Z</time>
      </trkpt>
      <trkpt lat="46.49325" lon="-0.52763">
        <ele>68.39</ele>
        <time>2014-09-20T15:03:30Z</time>
      </trkpt>
      <trkpt lat="46.49322" lon="-0.52762">
        <ele>68.39</ele>
        <time>2014-09-20T15:03:39Z</time>
      </trkpt>
      <trkpt lat="46.49322" lon="-0.5276">
        <ele>68.39</ele>
        <time>2014-09-20T15:03:40Z</time>
      </trkpt>
      <trkpt lat="46.49306" lon="-0.52748">
        <ele>66.95</ele>
        <time>2014-09-20T15:03:52Z</time>
      </trkpt>
      <trkpt lat="46.49297" lon="-0.52736">
        <ele>65.99</ele>
        <time>2014-09-20T15:04:02Z</time>
      </trkpt>
      <trkpt lat="46.49296" lon="-0.52732">
        <ele>65.51</ele>
        <time>2014-09-20T15:04:05Z</time>
      </trkpt>
      <trkpt lat="46.493" lon="-0.52713">
        <ele>64.07</ele>
        <time>2014-09-20T15:04:18Z</time>
      </trkpt>
      <trkpt lat="46.49303" lon="-0.52695">
        <ele>61.66</ele>
        <time>2014-09-20T15:04:28Z</time>
      </trkpt>
      <trkpt lat="46.49302" lon="-0.52677">
        <ele>59.74</ele>
        <time>2014-09-20T15:04:36Z</time>
      </trkpt>
      <trkpt lat="46.49293" lon="-0.52662">
        <ele>57.34</ele>
        <time>2014-09-20T15:04:47Z</time>
      </trkpt>
      <trkpt lat="46.49289" lon="-0.52649">
        <ele>54.93</ele>
        <time>2014-09-20T15:04:57Z</time>
      </trkpt>
      <trkpt lat="46.49282" lon="-0.52638">
        <ele>53.49</ele>
        <time>2014-09-20T15:05:04Z</time>
      </trkpt>
      <trkpt lat="46.49279" lon="-0.52637">
        <ele>52.53</ele>
        <time>2014-09-20T15:05:08Z</time>
      </trkpt>
      <trkpt lat="46.49263" lon="-0.52635">
        <ele>50.13</ele>
        <time>2014-09-20T15:05:20Z</time>
      </trkpt>
      <trkpt lat="46.4925" lon="-0.52635">
        <ele>47.72</ele>
        <time>2014-09-20T15:05:29Z</time>
      </trkpt>
      <trkpt lat="46.49239" lon="-0.52636">
        <ele>46.28</ele>
        <time>2014-09-20T15:05:38Z</time>
      </trkpt>
      <trkpt lat="46.49226" lon="-0.52631">
        <ele>44.36</ele>
        <time>2014-09-20T15:05:49Z</time>
      </trkpt>
      <trkpt lat="46.49216" lon="-0.52629">
        <ele>42.92</ele>
        <time>2014-09-20T15:05:59Z</time>
      </trkpt>
      <trkpt lat="46.49211" lon="-0.52629">
        <ele>41.47</ele>
        <time>2014-09-20T15:06:03Z</time>
      </trkpt>
      <trkpt lat="46.49201" lon="-0.52625">
        <ele>40.51</ele>
        <time>2014-09-20T15:06:11Z</time>
      </trkpt>
      <trkpt lat="46.49188" lon="-0.52621">
        <ele>40.03</ele>
        <time>2014-09-20T15:06:22Z</time>
      </trkpt>
      <trkpt lat="46.49179" lon="-0.52617">
        <ele>38.59</ele>
        <time>2014-09-20T15:06:30Z</time>
      </trkpt>
      <trkpt lat="46.49166" lon="-0.52618">
        <ele>35.71</ele>
        <time>2014-09-20T15:06:42Z</time>
      </trkpt>
      <trkpt lat="46.49147" lon="-0.52621">
        <ele>34.26</ele>
        <time>2014-09-20T15:06:56Z</time>
      </trkpt>
      <trkpt lat="46.49136" lon="-0.52624">
        <ele>32.82</ele>
        <time>2014-09-20T15:07:04Z</time>
      </trkpt>
      <trkpt lat="46.49124" lon="-0.52623">
        <ele>31.38</ele>
        <time>2014-09-20T15:07:15Z</time>
      </trkpt>
      <trkpt lat="46.49112" lon="-0.52627">
        <ele>31.38</ele>
        <time>2014-09-20T15:07:23Z</time>
      </trkpt>
      <trkpt lat="46.49104" lon="-0.52631">
        <ele>30.9</ele>
        <time>2014-09-20T15:07:31Z</time>
      </trkpt>
      <trkpt lat="46.49093" lon="-0.52639">
        <ele>31.86</ele>
        <time>2014-09-20T15:07:42Z</time>
      </trkpt>
      <trkpt lat="46.49087" lon="-0.52643">
        <ele>31.86</ele>
        <time>2014-09-20T15:07:53Z</time>
      </trkpt>
      <trkpt lat="46.49076" lon="-0.52647">
        <ele>32.82</ele>
        <time>2014-09-20T15:08:20Z</time>
      </trkpt>
      <trkpt lat="46.49063" lon="-0.52652">
        <ele>34.74</ele>
        <time>2014-09-20T15:08:31Z</time>
      </trkpt>
      <trkpt lat="46.49051" lon="-0.52656">
        <ele>36.19</ele>
        <time>2014-09-20T15:08:42Z</time>
      </trkpt>
      <trkpt lat="46.4904" lon="-0.52661">
        <ele>37.15</ele>
        <time>2014-09-20T15:08:50Z</time>
      </trkpt>
      <trkpt lat="46.49027" lon="-0.52668">
        <ele>37.63</ele>
        <time>2014-09-20T15:08:59Z</time>
      </trkpt>
      <trkpt lat="46.49021" lon="-0.52671">
        <ele>38.11</ele>
        <time>2014-09-20T15:09:06Z</time>
      </trkpt>
      <trkpt lat="46.49015" lon="-0.52675">
        <ele>37.63</ele>
        <time>2014-09-20T15:09:18Z</time>
      </trkpt>
      <trkpt lat="46.49012" lon="-0.52677">
        <ele>38.59</ele>
        <time>2014-09-20T15:09:57Z</time>
      </trkpt>
      <trkpt lat="46.49007" lon="-0.52679">
        <ele>39.07</ele>
        <time>2014-09-20T15:10:11Z</time>
      </trkpt>
      <trkpt lat="46.48998" lon="-0.52683">
        <ele>40.03</ele>
        <time>2014-09-20T15:10:23Z</time>
      </trkpt>
      <trkpt lat="46.48987" lon="-0.52692">
        <ele>39.55</ele>
        <time>2014-09-20T15:10:36Z</time>
      </trkpt>
      <trkpt lat="46.48977" lon="-0.52695">
        <ele>40.03</ele>
        <time>2014-09-20T15:10:48Z</time>
      </trkpt>
      <trkpt lat="46.48973" lon="-0.52695">
        <ele>40.03</ele>
        <time>2014-09-20T15:10:52Z</time>
      </trkpt>
      <trkpt lat="46.48956" lon="-0.52706">
        <ele>40.51</ele>
        <time>2014-09-20T15:11:05Z</time>
      </trkpt>
      <trkpt lat="46.48947" lon="-0.52714">
        <ele>39.55</ele>
        <time>2014-09-20T15:11:14Z</time>
      </trkpt>
      <trkpt lat="46.48937" lon="-0.52723">
        <ele>39.07</ele>
        <time>2014-09-20T15:11:22Z</time>
      </trkpt>
      <trkpt lat="46.48925" lon="-0.52733">
        <ele>38.59</ele>
        <time>2014-09-20T15:11:31Z</time>
      </trkpt>
      <trkpt lat="46.48918" lon="-0.52743">
        <ele>39.07</ele>
        <time>2014-09-20T15:11:40Z</time>
      </trkpt>
      <trkpt lat="46.48911" lon="-0.52752">
        <ele>39.07</ele>
        <time>2014-09-20T15:11:49Z</time>
      </trkpt>
      <trkpt lat="46.48901" lon="-0.5276">
        <ele>40.03</ele>
        <time>2014-09-20T15:11:58Z</time>
      </trkpt>
      <trkpt lat="46.48897" lon="-0.52763">
        <ele>40.51</ele>
        <time>2014-09-20T15:12:02Z</time>
      </trkpt>
      <trkpt lat="46.48885" lon="-0.52768">
        <ele>41.47</ele>
        <time>2014-09-20T15:12:10Z</time>
      </trkpt>
      <trkpt lat="46.48876" lon="-0.52771">
        <ele>42.44</ele>
        <time>2014-09-20T15:12:17Z</time>
      </trkpt>
      <trkpt lat="46.48872" lon="-0.52775">
        <ele>42.44</ele>
        <time>2014-09-20T15:12:22Z</time>
      </trkpt>
      <trkpt lat="46.48858" lon="-0.52785">
        <ele>43.4</ele>
        <time>2014-09-20T15:12:32Z</time>
      </trkpt>
      <trkpt lat="46.48849" lon="-0.52793">
        <ele>44.36</ele>
        <time>2014-09-20T15:12:39Z</time>
      </trkpt>
      <trkpt lat="46.4884" lon="-0.52798">
        <ele>45.32</ele>
        <time>2014-09-20T15:12:47Z</time>
      </trkpt>
      <trkpt lat="46.48831" lon="-0.52802">
        <ele>46.28</ele>
        <time>2014-09-20T15:12:55Z</time>
      </trkpt>
      <trkpt lat="46.4882" lon="-0.52816">
        <ele>48.2</ele>
        <time>2014-09-20T15:13:04Z</time>
      </trkpt>
      <trkpt lat="46.48811" lon="-0.52827">
        <ele>49.65</ele>
        <time>2014-09-20T15:13:13Z</time>
      </trkpt>
      <trkpt lat="46.48802" lon="-0.5284">
        <ele>51.09</ele>
        <time>2014-09-20T15:13:23Z</time>
      </trkpt>
      <trkpt lat="46.48794" lon="-0.52851">
        <ele>52.53</ele>
        <time>2014-09-20T15:13:32Z</time>
      </trkpt>
      <trkpt lat="46.48786" lon="-0.52865">
        <ele>54.45</ele>
        <time>2014-09-20T15:13:42Z</time>
      </trkpt>
      <trkpt lat="46.48777" lon="-0.52881">
        <ele>55.89</ele>
        <time>2014-09-20T15:13:52Z</time>
      </trkpt>
      <trkpt lat="46.48771" lon="-0.52897">
        <ele>56.86</ele>
        <time>2014-09-20T15:14:01Z</time>
      </trkpt>
      <trkpt lat="46.48765" lon="-0.52917">
        <ele>57.82</ele>
        <time>2014-09-20T15:14:12Z</time>
      </trkpt>
      <trkpt lat="46.4876" lon="-0.52931">
        <ele>58.78</ele>
        <time>2014-09-20T15:14:22Z</time>
      </trkpt>
      <trkpt lat="46.48755" lon="-0.52948">
        <ele>59.74</ele>
        <time>2014-09-20T15:14:33Z</time>
      </trkpt>
      <trkpt lat="46.4875" lon="-0.52961">
        <ele>61.66</ele>
        <time>2014-09-20T15:14:42Z</time>
      </trkpt>
      <trkpt lat="46.48744" lon="-0.52979">
        <ele>62.14</ele>
        <time>2014-09-20T15:14:53Z</time>
      </trkpt>
      <trkpt lat="46.4874" lon="-0.52991">
        <ele>63.58</ele>
        <time>2014-09-20T15:15:01Z</time>
      </trkpt>
      <trkpt lat="46.48731" lon="-0.53004">
        <ele>63.1</ele>
        <time>2014-09-20T15:15:08Z</time>
      </trkpt>
      <trkpt lat="46.48724" lon="-0.53014">
        <ele>63.58</ele>
        <time>2014-09-20T15:15:17Z</time>
      </trkpt>
      <trkpt lat="46.48717" lon="-0.53024">
        <ele>63.58</ele>
        <time>2014-09-20T15:15:24Z</time>
      </trkpt>
      <trkpt lat="46.48705" lon="-0.53038">
        <ele>63.58</ele>
        <time>2014-09-20T15:15:35Z</time>
      </trkpt>
      <trkpt lat="46.48695" lon="-0.53049">
        <ele>63.58</ele>
        <time>2014-09-20T15:15:43Z</time>
      </trkpt>
      <trkpt lat="46.48684" lon="-0.5306">
        <ele>61.18</ele>
        <time>2014-09-20T15:15:51Z</time>
      </trkpt>
      <trkpt lat="46.48675" lon="-0.5307">
        <ele>62.14</ele>
        <time>2014-09-20T15:16:00Z</time>
      </trkpt>
      <trkpt lat="46.48667" lon="-0.53081">
        <ele>60.7</ele>
        <time>2014-09-20T15:16:08Z</time>
      </trkpt>
      <trkpt lat="46.4866" lon="-0.53089">
        <ele>60.7</ele>
        <time>2014-09-20T15:16:14Z</time>
      </trkpt>
      <trkpt lat="46.48651" lon="-0.53097">
        <ele>60.7</ele>
        <time>2014-09-20T15:16:21Z</time>
      </trkpt>
      <trkpt lat="46.48646" lon="-0.53103">
        <ele>61.18</ele>
        <time>2014-09-20T15:16:30Z</time>
      </trkpt>
      <trkpt lat="46.4864" lon="-0.53109">
        <ele>60.22</ele>
        <time>2014-09-20T15:16:35Z</time>
      </trkpt>
      <trkpt lat="46.48632" lon="-0.53117">
        <ele>59.74</ele>
        <time>2014-09-20T15:16:43Z</time>
      </trkpt>
      <trkpt lat="46.48622" lon="-0.53128">
        <ele>59.26</ele>
        <time>2014-09-20T15:16:52Z</time>
      </trkpt>
      <trkpt lat="46.48613" lon="-0.53138">
        <ele>59.26</ele>
        <time>2014-09-20T15:16:59Z</time>
      </trkpt>
      <trkpt lat="46.48607" lon="-0.5315">
        <ele>56.37</ele>
        <time>2014-09-20T15:17:06Z</time>
      </trkpt>
      <trkpt lat="46.486" lon="-0.53154">
        <ele>53.01</ele>
        <time>2014-09-20T15:17:11Z</time>
      </trkpt>
      <trkpt lat="46.48595" lon="-0.53159">
        <ele>52.53</ele>
        <time>2014-09-20T15:17:16Z</time>
      </trkpt>
      <trkpt lat="46.48587" lon="-0.53166">
        <ele>52.05</ele>
        <time>2014-09-20T15:17:23Z</time>
      </trkpt>
      <trkpt lat="46.48576" lon="-0.53178">
        <ele>51.09</ele>
        <time>2014-09-20T15:17:33Z</time>
      </trkpt>
      <trkpt lat="46.4857" lon="-0.53187">
        <ele>51.09</ele>
        <time>2014-09-20T15:17:39Z</time>
      </trkpt>
      <trkpt lat="46.48564" lon="-0.53194">
        <ele>52.05</ele>
        <time>2014-09-20T15:17:46Z</time>
      </trkpt>
      <trkpt lat="46.48557" lon="-0.53201">
        <ele>53.49</ele>
        <time>2014-09-20T15:17:53Z</time>
      </trkpt>
      <trkpt lat="46.48551" lon="-0.53207">
        <ele>54.93</ele>
        <time>2014-09-20T15:17:59Z</time>
      </trkpt>
      <trkpt lat="46.48548" lon="-0.53208">
        <ele>55.41</ele>
        <time>2014-09-20T15:18:02Z</time>
      </trkpt>
      <trkpt lat="46.48534" lon="-0.53224">
        <ele>53.97</ele>
        <time>2014-09-20T15:18:13Z</time>
      </trkpt>
      <trkpt lat="46.48523" lon="-0.53237">
        <ele>53.97</ele>
        <time>2014-09-20T15:18:21Z</time>
      </trkpt>
      <trkpt lat="46.48517" lon="-0.53244">
        <ele>52.53</ele>
        <time>2014-09-20T15:18:27Z</time>
      </trkpt>
      <trkpt lat="46.48506" lon="-0.53257">
        <ele>50.13</ele>
        <time>2014-09-20T15:18:38Z</time>
      </trkpt>
      <trkpt lat="46.48497" lon="-0.53263">
        <ele>50.13</ele>
        <time>2014-09-20T15:18:45Z</time>
      </trkpt>
      <trkpt lat="46.48494" lon="-0.53266">
        <ele>50.61</ele>
        <time>2014-09-20T15:18:49Z</time>
      </trkpt>
      <trkpt lat="46.48487" lon="-0.53273">
        <ele>51.57</ele>
        <time>2014-09-20T15:18:55Z</time>
      </trkpt>
      <trkpt lat="46.48482" lon="-0.53277">
        <ele>51.57</ele>
        <time>2014-09-20T15:19:01Z</time>
      </trkpt>
      <trkpt lat="46.48472" lon="-0.53283">
        <ele>52.05</ele>
        <time>2014-09-20T15:19:10Z</time>
      </trkpt>
      <trkpt lat="46.48464" lon="-0.53288">
        <ele>53.01</ele>
        <time>2014-09-20T15:19:15Z</time>
      </trkpt>
      <trkpt lat="46.48459" lon="-0.53292">
        <ele>53.49</ele>
        <time>2014-09-20T15:19:21Z</time>
      </trkpt>
      <trkpt lat="46.48452" lon="-0.53299">
        <ele>53.01</ele>
        <time>2014-09-20T15:19:28Z</time>
      </trkpt>
      <trkpt lat="46.48444" lon="-0.53303">
        <ele>53.01</ele>
        <time>2014-09-20T15:19:33Z</time>
      </trkpt>
      <trkpt lat="46.48439" lon="-0.53307">
        <ele>52.53</ele>
        <time>2014-09-20T15:19:38Z</time>
      </trkpt>
      <trkpt lat="46.4843" lon="-0.53312">
        <ele>52.05</ele>
        <time>2014-09-20T15:19:44Z</time>
      </trkpt>
      <trkpt lat="46.48422" lon="-0.53317">
        <ele>52.05</ele>
        <time>2014-09-20T15:19:52Z</time>
      </trkpt>
      <trkpt lat="46.48411" lon="-0.53324">
        <ele>53.01</ele>
        <time>2014-09-20T15:20:02Z</time>
      </trkpt>
      <trkpt lat="46.48399" lon="-0.53332">
        <ele>52.53</ele>
        <time>2014-09-20T15:20:11Z</time>
      </trkpt>
      <trkpt lat="46.4839" lon="-0.53341">
        <ele>53.49</ele>
        <time>2014-09-20T15:20:20Z</time>
      </trkpt>
      <trkpt lat="46.48381" lon="-0.53352">
        <ele>52.53</ele>
        <time>2014-09-20T15:20:30Z</time>
      </trkpt>
      <trkpt lat="46.48373" lon="-0.53365">
        <ele>52.53</ele>
        <time>2014-09-20T15:20:39Z</time>
      </trkpt>
      <trkpt lat="46.48362" lon="-0.53379">
        <ele>53.01</ele>
        <time>2014-09-20T15:20:50Z</time>
      </trkpt>
      <trkpt lat="46.48357" lon="-0.53386">
        <ele>53.97</ele>
        <time>2014-09-20T15:20:56Z</time>
      </trkpt>
      <trkpt lat="46.48353" lon="-0.53395">
        <ele>54.93</ele>
        <time>2014-09-20T15:21:03Z</time>
      </trkpt>
      <trkpt lat="46.48342" lon="-0.53412">
        <ele>56.86</ele>
        <time>2014-09-20T15:21:15Z</time>
      </trkpt>
      <trkpt lat="46.48335" lon="-0.53422">
        <ele>56.37</ele>
        <time>2014-09-20T15:21:23Z</time>
      </trkpt>
      <trkpt lat="46.48326" lon="-0.53436">
        <ele>56.86</ele>
        <time>2014-09-20T15:21:32Z</time>
      </trkpt>
      <trkpt lat="46.48317" lon="-0.53448">
        <ele>58.3</ele>
        <time>2014-09-20T15:21:43Z</time>
      </trkpt>
      <trkpt lat="46.4831" lon="-0.5346">
        <ele>58.78</ele>
        <time>2014-09-20T15:21:52Z</time>
      </trkpt>
      <trkpt lat="46.48303" lon="-0.53471">
        <ele>57.82</ele>
        <time>2014-09-20T15:22:00Z</time>
      </trkpt>
      <trkpt lat="46.483" lon="-0.53479">
        <ele>57.82</ele>
        <time>2014-09-20T15:22:05Z</time>
      </trkpt>
      <trkpt lat="46.48296" lon="-0.53496">
        <ele>57.82</ele>
        <time>2014-09-20T15:22:14Z</time>
      </trkpt>
      <trkpt lat="46.48293" lon="-0.53508">
        <ele>57.34</ele>
        <time>2014-09-20T15:22:21Z</time>
      </trkpt>
      <trkpt lat="46.48292" lon="-0.53526">
        <ele>57.34</ele>
        <time>2014-09-20T15:22:31Z</time>
      </trkpt>
      <trkpt lat="46.48293" lon="-0.53536">
        <ele>56.37</ele>
        <time>2014-09-20T15:22:36Z</time>
      </trkpt>
      <trkpt lat="46.48295" lon="-0.53546">
        <ele>56.86</ele>
        <time>2014-09-20T15:22:41Z</time>
      </trkpt>
      <trkpt lat="46.48295" lon="-0.53568">
        <ele>54.93</ele>
        <time>2014-09-20T15:22:52Z</time>
      </trkpt>
      <trkpt lat="46.48298" lon="-0.53575">
        <ele>54.93</ele>
        <time>2014-09-20T15:23:00Z</time>
      </trkpt>
      <trkpt lat="46.48297" lon="-0.53575">
        <ele>54.93</ele>
        <time>2014-09-20T15:23:16Z</time>
      </trkpt>
      <trkpt lat="46.48298" lon="-0.53575">
        <ele>54.45</ele>
        <time>2014-09-20T15:23:36Z</time>
      </trkpt>
      <trkpt lat="46.48301" lon="-0.53578">
        <ele>54.45</ele>
        <time>2014-09-20T15:23:42Z</time>
      </trkpt>
      <trkpt lat="46.48308" lon="-0.53588">
        <ele>54.93</ele>
        <time>2014-09-20T15:23:49Z</time>
      </trkpt>
      <trkpt lat="46.48318" lon="-0.53597">
        <ele>55.89</ele>
        <time>2014-09-20T15:23:59Z</time>
      </trkpt>
      <trkpt lat="46.48317" lon="-0.53599">
        <ele>55.89</ele>
        <time>2014-09-20T15:24:07Z</time>
      </trkpt>
      <trkpt lat="46.48317" lon="-0.53599">
        <ele>56.37</ele>
        <time>2014-09-20T15:24:24Z</time>
      </trkpt>
      <trkpt lat="46.48324" lon="-0.53606">
        <ele>56.37</ele>
        <time>2014-09-20T15:24:32Z</time>
      </trkpt>
      <trkpt lat="46.48335" lon="-0.5362">
        <ele>55.89</ele>
        <time>2014-09-20T15:24:42Z</time>
      </trkpt>
      <trkpt lat="46.48341" lon="-0.53629">
        <ele>55.89</ele>
        <time>2014-09-20T15:24:48Z</time>
      </trkpt>
      <trkpt lat="46.48342" lon="-0.5363">
        <ele>55.89</ele>
        <time>2014-09-20T15:24:50Z</time>
      </trkpt>
      <trkpt lat="46.48348" lon="-0.53637">
        <ele>53.97</ele>
        <time>2014-09-20T15:24:54Z</time>
      </trkpt>
      <trkpt lat="46.48352" lon="-0.53652">
        <ele>53.97</ele>
        <time>2014-09-20T15:25:01Z</time>
      </trkpt>
      <trkpt lat="46.4835" lon="-0.53676">
        <ele>53.97</ele>
        <time>2014-09-20T15:25:14Z</time>
      </trkpt>
      <trkpt lat="46.48349" lon="-0.53674">
        <ele>55.89</ele>
        <time>2014-09-20T15:25:21Z</time>
      </trkpt>
      <trkpt lat="46.48348" lon="-0.53682">
        <ele>55.89</ele>
        <time>2014-09-20T15:25:27Z</time>
      </trkpt>
      <trkpt lat="46.48348" lon="-0.53683">
        <ele>56.37</ele>
        <time>2014-09-20T15:25:35Z</time>
      </trkpt>
      <trkpt lat="46.48348" lon="-0.53684">
        <ele>57.34</ele>
        <time>2014-09-20T15:25:44Z</time>
      </trkpt>
      <trkpt lat="46.48347" lon="-0.53682">
        <ele>57.34</ele>
        <time>2014-09-20T15:26:07Z</time>
      </trkpt>
      <trkpt lat="46.48348" lon="-0.53681">
        <ele>57.82</ele>
        <time>2014-09-20T15:26:51Z</time>
      </trkpt>
      <trkpt lat="46.48346" lon="-0.53681">
        <ele>57.34</ele>
        <time>2014-09-20T15:26:57Z</time>
      </trkpt>
      <trkpt lat="46.48346" lon="-0.53678">
        <ele>57.82</ele>
        <time>2014-09-20T15:27:10Z</time>
      </trkpt>
      <trkpt lat="46.48347" lon="-0.53675">
        <ele>57.82</ele>
        <time>2014-09-20T15:27:39Z</time>
      </trkpt>
      <trkpt lat="46.48347" lon="-0.53667">
        <ele>57.34</ele>
        <time>2014-09-20T15:27:47Z</time>
      </trkpt>
      <trkpt lat="46.48348" lon="-0.53658">
        <ele>57.82</ele>
        <time>2014-09-20T15:27:56Z</time>
      </trkpt>
      <trkpt lat="46.48348" lon="-0.53656">
        <ele>58.3</ele>
        <time>2014-09-20T15:27:58Z</time>
      </trkpt>
      <trkpt lat="46.48349" lon="-0.53654">
        <ele>58.3</ele>
        <time>2014-09-20T15:28:00Z</time>
      </trkpt>
      <trkpt lat="46.48344" lon="-0.53639">
        <ele>55.41</ele>
        <time>2014-09-20T15:28:10Z</time>
      </trkpt>
      <trkpt lat="46.48338" lon="-0.53626">
        <ele>54.45</ele>
        <time>2014-09-20T15:28:18Z</time>
      </trkpt>
      <trkpt lat="46.48333" lon="-0.53621">
        <ele>53.97</ele>
        <time>2014-09-20T15:28:24Z</time>
      </trkpt>
      <trkpt lat="46.48327" lon="-0.53615">
        <ele>54.45</ele>
        <time>2014-09-20T15:28:31Z</time>
      </trkpt>
      <trkpt lat="46.4832" lon="-0.53605">
        <ele>54.45</ele>
        <time>2014-09-20T15:28:40Z</time>
      </trkpt>
      <trkpt lat="46.48316" lon="-0.53601">
        <ele>54.93</ele>
        <time>2014-09-20T15:28:44Z</time>
      </trkpt>
      <trkpt lat="46.48307" lon="-0.53591">
        <ele>56.37</ele>
        <time>2014-09-20T15:28:52Z</time>
      </trkpt>
      <trkpt lat="46.48303" lon="-0.53587">
        <ele>56.37</ele>
        <time>2014-09-20T15:29:00Z</time>
      </trkpt>
      <trkpt lat="46.48304" lon="-0.53587">
        <ele>56.37</ele>
        <time>2014-09-20T15:29:02Z</time>
      </trkpt>
      <trkpt lat="46.48304" lon="-0.53586">
        <ele>56.37</ele>
        <time>2014-09-20T15:29:05Z</time>
      </trkpt>
      <trkpt lat="46.48304" lon="-0.53586">
        <ele>55.89</ele>
        <time>2014-09-20T15:29:10Z</time>
      </trkpt>
      <trkpt lat="46.48305" lon="-0.53585">
        <ele>56.37</ele>
        <time>2014-09-20T15:29:17Z</time>
      </trkpt>
      <trkpt lat="46.48304" lon="-0.53585">
        <ele>56.37</ele>
        <time>2014-09-20T15:29:18Z</time>
      </trkpt>
      <trkpt lat="46.48293" lon="-0.53577">
        <ele>53.49</ele>
        <time>2014-09-20T15:29:27Z</time>
      </trkpt>
      <trkpt lat="46.48287" lon="-0.53566">
        <ele>52.05</ele>
        <time>2014-09-20T15:29:33Z</time>
      </trkpt>
      <trkpt lat="46.48284" lon="-0.53565">
        <ele>51.57</ele>
        <time>2014-09-20T15:29:39Z</time>
      </trkpt>
      <trkpt lat="46.48279" lon="-0.53568">
        <ele>51.09</ele>
        <time>2014-09-20T15:29:42Z</time>
      </trkpt>
      <trkpt lat="46.48274" lon="-0.53574">
        <ele>51.09</ele>
        <time>2014-09-20T15:29:51Z</time>
      </trkpt>
      <trkpt lat="46.48268" lon="-0.53578">
        <ele>50.61</ele>
        <time>2014-09-20T15:30:00Z</time>
      </trkpt>
      <trkpt lat="46.48259" lon="-0.53586">
        <ele>49.16</ele>
        <time>2014-09-20T15:30:11Z</time>
      </trkpt>
      <trkpt lat="46.48246" lon="-0.53599">
        <ele>47.72</ele>
        <time>2014-09-20T15:30:26Z</time>
      </trkpt>
      <trkpt lat="46.48239" lon="-0.53609">
        <ele>47.24</ele>
        <time>2014-09-20T15:30:33Z</time>
      </trkpt>
      <trkpt lat="46.48232" lon="-0.53616">
        <ele>46.28</ele>
        <time>2014-09-20T15:30:39Z</time>
      </trkpt>
      <trkpt lat="46.48225" lon="-0.53623">
        <ele>46.28</ele>
        <time>2014-09-20T15:30:46Z</time>
      </trkpt>
      <trkpt lat="46.48215" lon="-0.53622">
        <ele>45.32</ele>
        <time>2014-09-20T15:30:54Z</time>
      </trkpt>
      <trkpt lat="46.48214" lon="-0.53617">
        <ele>45.32</ele>
        <time>2014-09-20T15:30:58Z</time>
      </trkpt>
      <trkpt lat="46.4821" lon="-0.53604">
        <ele>44.84</ele>
        <time>2014-09-20T15:31:06Z</time>
      </trkpt>
      <trkpt lat="46.48205" lon="-0.53587">
        <ele>45.32</ele>
        <time>2014-09-20T15:31:15Z</time>
      </trkpt>
      <trkpt lat="46.48198" lon="-0.53571">
        <ele>45.8</ele>
        <time>2014-09-20T15:31:24Z</time>
      </trkpt>
      <trkpt lat="46.48192" lon="-0.53556">
        <ele>46.76</ele>
        <time>2014-09-20T15:31:34Z</time>
      </trkpt>
      <trkpt lat="46.48186" lon="-0.53544">
        <ele>46.28</ele>
        <time>2014-09-20T15:31:43Z</time>
      </trkpt>
      <trkpt lat="46.48181" lon="-0.53531">
        <ele>44.84</ele>
        <time>2014-09-20T15:31:50Z</time>
      </trkpt>
      <trkpt lat="46.48176" lon="-0.5352">
        <ele>44.84</ele>
        <time>2014-09-20T15:31:57Z</time>
      </trkpt>
      <trkpt lat="46.48167" lon="-0.53504">
        <ele>44.36</ele>
        <time>2014-09-20T15:32:07Z</time>
      </trkpt>
      <trkpt lat="46.48165" lon="-0.53501">
        <ele>43.88</ele>
        <time>2014-09-20T15:32:11Z</time>
      </trkpt>
      <trkpt lat="46.48159" lon="-0.53492">
        <ele>43.88</ele>
        <time>2014-09-20T15:32:16Z</time>
      </trkpt>
      <trkpt lat="46.48153" lon="-0.53477">
        <ele>45.8</ele>
        <time>2014-09-20T15:32:26Z</time>
      </trkpt>
      <trkpt lat="46.48145" lon="-0.53455">
        <ele>46.28</ele>
        <time>2014-09-20T15:32:38Z</time>
      </trkpt>
      <trkpt lat="46.4814" lon="-0.53444">
        <ele>45.32</ele>
        <time>2014-09-20T15:32:46Z</time>
      </trkpt>
      <trkpt lat="46.48135" lon="-0.53433">
        <ele>44.84</ele>
        <time>2014-09-20T15:32:52Z</time>
      </trkpt>
      <trkpt lat="46.48128" lon="-0.53424">
        <ele>44.84</ele>
        <time>2014-09-20T15:32:58Z</time>
      </trkpt>
      <trkpt lat="46.48126" lon="-0.53417">
        <ele>44.84</ele>
        <time>2014-09-20T15:33:04Z</time>
      </trkpt>
      <trkpt lat="46.48123" lon="-0.53406">
        <ele>43.88</ele>
        <time>2014-09-20T15:33:09Z</time>
      </trkpt>
      <trkpt lat="46.4812" lon="-0.53397">
        <ele>44.36</ele>
        <time>2014-09-20T15:33:15Z</time>
      </trkpt>
      <trkpt lat="46.4812" lon="-0.53395">
        <ele>44.36</ele>
        <time>2014-09-20T15:33:16Z</time>
      </trkpt>
      <trkpt lat="46.48118" lon="-0.53379">
        <ele>44.84</ele>
        <time>2014-09-20T15:33:25Z</time>
      </trkpt>
      <trkpt lat="46.48115" lon="-0.53363">
        <ele>43.88</ele>
        <time>2014-09-20T15:33:33Z</time>
      </trkpt>
      <trkpt lat="46.48116" lon="-0.53347">
        <ele>43.88</ele>
        <time>2014-09-20T15:33:43Z</time>
      </trkpt>
      <trkpt lat="46.48115" lon="-0.5333">
        <ele>43.4</ele>
        <time>2014-09-20T15:33:51Z</time>
      </trkpt>
      <trkpt lat="46.48111" lon="-0.53321">
        <ele>43.4</ele>
        <time>2014-09-20T15:33:59Z</time>
      </trkpt>
      <trkpt lat="46.48105" lon="-0.53321">
        <ele>43.4</ele>
        <time>2014-09-20T15:34:08Z</time>
      </trkpt>
      <trkpt lat="46.48099" lon="-0.53324">
        <ele>44.36</ele>
        <time>2014-09-20T15:34:22Z</time>
      </trkpt>
      <trkpt lat="46.48091" lon="-0.53325">
        <ele>44.36</ele>
        <time>2014-09-20T15:34:40Z</time>
      </trkpt>
      <trkpt lat="46.48076" lon="-0.53331">
        <ele>44.36</ele>
        <time>2014-09-20T15:34:52Z</time>
      </trkpt>
      <trkpt lat="46.48064" lon="-0.53327">
        <ele>45.32</ele>
        <time>2014-09-20T15:35:06Z</time>
      </trkpt>
      <trkpt lat="46.4806" lon="-0.53323">
        <ele>45.32</ele>
        <time>2014-09-20T15:35:10Z</time>
      </trkpt>
      <trkpt lat="46.48052" lon="-0.53313">
        <ele>44.36</ele>
        <time>2014-09-20T15:35:20Z</time>
      </trkpt>
      <trkpt lat="46.48045" lon="-0.53301">
        <ele>40.99</ele>
        <time>2014-09-20T15:35:29Z</time>
      </trkpt>
      <trkpt lat="46.48043" lon="-0.53295">
        <ele>40.51</ele>
        <time>2014-09-20T15:35:33Z</time>
      </trkpt>
      <trkpt lat="46.48039" lon="-0.53282">
        <ele>38.11</ele>
        <time>2014-09-20T15:35:43Z</time>
      </trkpt>
      <trkpt lat="46.48037" lon="-0.53269">
        <ele>36.67</ele>
        <time>2014-09-20T15:35:52Z</time>
      </trkpt>
      <trkpt lat="46.48031" lon="-0.53252">
        <ele>35.71</ele>
        <time>2014-09-20T15:36:06Z</time>
      </trkpt>
      <trkpt lat="46.4803" lon="-0.53237">
        <ele>35.71</ele>
        <time>2014-09-20T15:36:18Z</time>
      </trkpt>
      <trkpt lat="46.4803" lon="-0.53235">
        <ele>35.71</ele>
        <time>2014-09-20T15:36:29Z</time>
      </trkpt>
      <trkpt lat="46.48033" lon="-0.53234">
        <ele>36.19</ele>
        <time>2014-09-20T15:36:31Z</time>
      </trkpt>
      <trkpt lat="46.48036" lon="-0.53233">
        <ele>37.15</ele>
        <time>2014-09-20T15:36:40Z</time>
      </trkpt>
      <trkpt lat="46.48037" lon="-0.53233">
        <ele>39.55</ele>
        <time>2014-09-20T15:37:02Z</time>
      </trkpt>
      <trkpt lat="46.48038" lon="-0.53231">
        <ele>41.47</ele>
        <time>2014-09-20T15:37:19Z</time>
      </trkpt>
      <trkpt lat="46.48037" lon="-0.53229">
        <ele>42.44</ele>
        <time>2014-09-20T15:37:22Z</time>
      </trkpt>
      <trkpt lat="46.48033" lon="-0.5322">
        <ele>43.88</ele>
        <time>2014-09-20T15:37:28Z</time>
      </trkpt>
      <trkpt lat="46.48033" lon="-0.53214">
        <ele>44.36</ele>
        <time>2014-09-20T15:37:33Z</time>
      </trkpt>
      <trkpt lat="46.4803" lon="-0.53211">
        <ele>44.84</ele>
        <time>2014-09-20T15:37:36Z</time>
      </trkpt>
      <trkpt lat="46.48031" lon="-0.5321">
        <ele>44.84</ele>
        <time>2014-09-20T15:37:42Z</time>
      </trkpt>
      <trkpt lat="46.4803" lon="-0.53207">
        <ele>44.84</ele>
        <time>2014-09-20T15:37:53Z</time>
      </trkpt>
      <trkpt lat="46.48032" lon="-0.53217">
        <ele>45.32</ele>
        <time>2014-09-20T15:38:02Z</time>
      </trkpt>
      <trkpt lat="46.48037" lon="-0.53223">
        <ele>45.32</ele>
        <time>2014-09-20T15:38:07Z</time>
      </trkpt>
      <trkpt lat="46.48037" lon="-0.53232">
        <ele>44.84</ele>
        <time>2014-09-20T15:38:18Z</time>
      </trkpt>
      <trkpt lat="46.48037" lon="-0.53228">
        <ele>44.36</ele>
        <time>2014-09-20T15:38:46Z</time>
      </trkpt>
      <trkpt lat="46.48035" lon="-0.53232">
        <ele>44.84</ele>
        <time>2014-09-20T15:38:54Z</time>
      </trkpt>
      <trkpt lat="46.48019" lon="-0.53238">
        <ele>45.32</ele>
        <time>2014-09-20T15:39:05Z</time>
      </trkpt>
      <trkpt lat="46.4801" lon="-0.53243">
        <ele>45.8</ele>
        <time>2014-09-20T15:39:17Z</time>
      </trkpt>
      <trkpt lat="46.48004" lon="-0.53249">
        <ele>45.8</ele>
        <time>2014-09-20T15:39:32Z</time>
      </trkpt>
      <trkpt lat="46.48002" lon="-0.53256">
        <ele>46.28</ele>
        <time>2014-09-20T15:39:53Z</time>
      </trkpt>
      <trkpt lat="46.48" lon="-0.53259">
        <ele>46.28</ele>
        <time>2014-09-20T15:39:55Z</time>
      </trkpt>
      <trkpt lat="46.47992" lon="-0.53279">
        <ele>47.72</ele>
        <time>2014-09-20T15:40:08Z</time>
      </trkpt>
      <trkpt lat="46.47986" lon="-0.53292">
        <ele>48.68</ele>
        <time>2014-09-20T15:40:19Z</time>
      </trkpt>
      <trkpt lat="46.47982" lon="-0.53301">
        <ele>49.16</ele>
        <time>2014-09-20T15:40:26Z</time>
      </trkpt>
      <trkpt lat="46.47976" lon="-0.53313">
        <ele>49.65</ele>
        <time>2014-09-20T15:40:35Z</time>
      </trkpt>
      <trkpt lat="46.47966" lon="-0.53333">
        <ele>50.61</ele>
        <time>2014-09-20T15:40:50Z</time>
      </trkpt>
      <trkpt lat="46.47961" lon="-0.5335">
        <ele>52.05</ele>
        <time>2014-09-20T15:41:01Z</time>
      </trkpt>
      <trkpt lat="46.47949" lon="-0.5335">
        <ele>53.49</ele>
        <time>2014-09-20T15:41:12Z</time>
      </trkpt>
      <trkpt lat="46.4794" lon="-0.53345">
        <ele>53.97</ele>
        <time>2014-09-20T15:41:22Z</time>
      </trkpt>
      <trkpt lat="46.47916" lon="-0.53337">
        <ele>55.41</ele>
        <time>2014-09-20T15:41:40Z</time>
      </trkpt>
      <trkpt lat="46.47905" lon="-0.53332">
        <ele>56.86</ele>
        <time>2014-09-20T15:41:52Z</time>
      </trkpt>
      <trkpt lat="46.47891" lon="-0.53319">
        <ele>58.3</ele>
        <time>2014-09-20T15:42:06Z</time>
      </trkpt>
      <trkpt lat="46.4788" lon="-0.53316">
        <ele>61.66</ele>
        <time>2014-09-20T15:42:19Z</time>
      </trkpt>
      <trkpt lat="46.47865" lon="-0.53319">
        <ele>65.99</ele>
        <time>2014-09-20T15:42:31Z</time>
      </trkpt>
      <trkpt lat="46.47861" lon="-0.53331">
        <ele>68.87</ele>
        <time>2014-09-20T15:42:39Z</time>
      </trkpt>
      <trkpt lat="46.47854" lon="-0.53337">
        <ele>71.76</ele>
        <time>2014-09-20T15:42:46Z</time>
      </trkpt>
      <trkpt lat="46.47846" lon="-0.5335">
        <ele>76.08</ele>
        <time>2014-09-20T15:42:56Z</time>
      </trkpt>
      <trkpt lat="46.47839" lon="-0.53362">
        <ele>78.48</ele>
        <time>2014-09-20T15:43:04Z</time>
      </trkpt>
      <trkpt lat="46.47831" lon="-0.53372">
        <ele>80.89</ele>
        <time>2014-09-20T15:43:13Z</time>
      </trkpt>
      <trkpt lat="46.47822" lon="-0.53385">
        <ele>82.33</ele>
        <time>2014-09-20T15:43:24Z</time>
      </trkpt>
      <trkpt lat="46.47814" lon="-0.53396">
        <ele>82.81</ele>
        <time>2014-09-20T15:43:32Z</time>
      </trkpt>
      <trkpt lat="46.47804" lon="-0.53405">
        <ele>82.81</ele>
        <time>2014-09-20T15:43:41Z</time>
      </trkpt>
      <trkpt lat="46.47793" lon="-0.53414">
        <ele>82.81</ele>
        <time>2014-09-20T15:43:51Z</time>
      </trkpt>
      <trkpt lat="46.47784" lon="-0.53421">
        <ele>83.29</ele>
        <time>2014-09-20T15:44:00Z</time>
      </trkpt>
      <trkpt lat="46.47779" lon="-0.53425">
        <ele>83.77</ele>
        <time>2014-09-20T15:44:09Z</time>
      </trkpt>
      <trkpt lat="46.47782" lon="-0.53432">
        <ele>83.29</ele>
        <time>2014-09-20T15:44:44Z</time>
      </trkpt>
      <trkpt lat="46.47783" lon="-0.53437">
        <ele>82.81</ele>
        <time>2014-09-20T15:44:52Z</time>
      </trkpt>
      <trkpt lat="46.47789" lon="-0.53449">
        <ele>82.33</ele>
        <time>2014-09-20T15:45:01Z</time>
      </trkpt>
      <trkpt lat="46.47793" lon="-0.53461">
        <ele>81.85</ele>
        <time>2014-09-20T15:45:07Z</time>
      </trkpt>
      <trkpt lat="46.47797" lon="-0.53473">
        <ele>81.37</ele>
        <time>2014-09-20T15:45:15Z</time>
      </trkpt>
      <trkpt lat="46.47802" lon="-0.53484">
        <ele>82.33</ele>
        <time>2014-09-20T15:45:23Z</time>
      </trkpt>
      <trkpt lat="46.47805" lon="-0.53493">
        <ele>83.29</ele>
        <time>2014-09-20T15:45:28Z</time>
      </trkpt>
      <trkpt lat="46.47806" lon="-0.53494">
        <ele>83.29</ele>
        <time>2014-09-20T15:45:29Z</time>
      </trkpt>
      <trkpt lat="46.47813" lon="-0.53508">
        <ele>83.77</ele>
        <time>2014-09-20T15:45:38Z</time>
      </trkpt>
      <trkpt lat="46.4782" lon="-0.53521">
        <ele>84.25</ele>
        <time>2014-09-20T15:45:46Z</time>
      </trkpt>
      <trkpt lat="46.47824" lon="-0.5353">
        <ele>84.25</ele>
        <time>2014-09-20T15:45:53Z</time>
      </trkpt>
      <trkpt lat="46.47828" lon="-0.53541">
        <ele>83.29</ele>
        <time>2014-09-20T15:45:58Z</time>
      </trkpt>
      <trkpt lat="46.47834" lon="-0.53556">
        <ele>84.73</ele>
        <time>2014-09-20T15:46:07Z</time>
      </trkpt>
      <trkpt lat="46.47839" lon="-0.53568">
        <ele>86.18</ele>
        <time>2014-09-20T15:46:15Z</time>
      </trkpt>
      <trkpt lat="46.47845" lon="-0.53582">
        <ele>84.25</ele>
        <time>2014-09-20T15:46:23Z</time>
      </trkpt>
      <trkpt lat="46.47852" lon="-0.53598">
        <ele>83.77</ele>
        <time>2014-09-20T15:46:33Z</time>
      </trkpt>
      <trkpt lat="46.47863" lon="-0.53611">
        <ele>83.77</ele>
        <time>2014-09-20T15:46:44Z</time>
      </trkpt>
      <trkpt lat="46.47866" lon="-0.53612">
        <ele>84.25</ele>
        <time>2014-09-20T15:46:48Z</time>
      </trkpt>
      <trkpt lat="46.47876" lon="-0.53614">
        <ele>84.73</ele>
        <time>2014-09-20T15:47:00Z</time>
      </trkpt>
      <trkpt lat="46.47876" lon="-0.53611">
        <ele>84.73</ele>
        <time>2014-09-20T15:47:10Z</time>
      </trkpt>
      <trkpt lat="46.47873" lon="-0.53611">
        <ele>84.73</ele>
        <time>2014-09-20T15:48:08Z</time>
      </trkpt>
      <trkpt lat="46.47873" lon="-0.53603">
        <ele>85.69</ele>
        <time>2014-09-20T15:48:47Z</time>
      </trkpt>
      <trkpt lat="46.47867" lon="-0.53609">
        <ele>85.21</ele>
        <time>2014-09-20T15:48:55Z</time>
      </trkpt>
      <trkpt lat="46.47861" lon="-0.53621">
        <ele>83.29</ele>
        <time>2014-09-20T15:49:05Z</time>
      </trkpt>
      <trkpt lat="46.47865" lon="-0.5363">
        <ele>81.85</ele>
        <time>2014-09-20T15:49:12Z</time>
      </trkpt>
      <trkpt lat="46.4787" lon="-0.53643">
        <ele>80.41</ele>
        <time>2014-09-20T15:49:20Z</time>
      </trkpt>
      <trkpt lat="46.47872" lon="-0.53644">
        <ele>80.41</ele>
        <time>2014-09-20T15:49:29Z</time>
      </trkpt>
      <trkpt lat="46.47873" lon="-0.53643">
        <ele>80.41</ele>
        <time>2014-09-20T15:49:37Z</time>
      </trkpt>
      <trkpt lat="46.47873" lon="-0.53641">
        <ele>79.93</ele>
        <time>2014-09-20T15:49:52Z</time>
      </trkpt>
      <trkpt lat="46.47873" lon="-0.53645">
        <ele>79.93</ele>
        <time>2014-09-20T15:50:02Z</time>
      </trkpt>
      <trkpt lat="46.47873" lon="-0.5365">
        <ele>80.41</ele>
        <time>2014-09-20T15:50:09Z</time>
      </trkpt>
      <trkpt lat="46.47873" lon="-0.53654">
        <ele>80.41</ele>
        <time>2014-09-20T15:50:15Z</time>
      </trkpt>
      <trkpt lat="46.47872" lon="-0.5367">
        <ele>78</ele>
        <time>2014-09-20T15:50:24Z</time>
      </trkpt>
      <trkpt lat="46.47872" lon="-0.53675">
        <ele>77.52</ele>
        <time>2014-09-20T15:50:30Z</time>
      </trkpt>
      <trkpt lat="46.47872" lon="-0.53683">
        <ele>78</ele>
        <time>2014-09-20T15:50:39Z</time>
      </trkpt>
      <trkpt lat="46.47872" lon="-0.53685">
        <ele>78</ele>
        <time>2014-09-20T15:50:49Z</time>
      </trkpt>
      <trkpt lat="46.47873" lon="-0.53697">
        <ele>78.48</ele>
        <time>2014-09-20T15:50:57Z</time>
      </trkpt>
      <trkpt lat="46.47876" lon="-0.53715">
        <ele>78</ele>
        <time>2014-09-20T15:51:06Z</time>
      </trkpt>
      <trkpt lat="46.47876" lon="-0.53721">
        <ele>78</ele>
        <time>2014-09-20T15:51:10Z</time>
      </trkpt>
      <trkpt lat="46.47877" lon="-0.53739">
        <ele>77.52</ele>
        <time>2014-09-20T15:51:19Z</time>
      </trkpt>
      <trkpt lat="46.47878" lon="-0.53756">
        <ele>76.56</ele>
        <time>2014-09-20T15:51:27Z</time>
      </trkpt>
      <trkpt lat="46.47878" lon="-0.53775">
        <ele>73.68</ele>
        <time>2014-09-20T15:51:35Z</time>
      </trkpt>
      <trkpt lat="46.47878" lon="-0.53788">
        <ele>72.72</ele>
        <time>2014-09-20T15:51:42Z</time>
      </trkpt>
      <trkpt lat="46.47879" lon="-0.53796">
        <ele>72.72</ele>
        <time>2014-09-20T15:51:46Z</time>
      </trkpt>
      <trkpt lat="46.4788" lon="-0.53815">
        <ele>71.76</ele>
        <time>2014-09-20T15:51:58Z</time>
      </trkpt>
      <trkpt lat="46.47881" lon="-0.53831">
        <ele>70.79</ele>
        <time>2014-09-20T15:52:07Z</time>
      </trkpt>
      <trkpt lat="46.4788" lon="-0.53846">
        <ele>70.31</ele>
        <time>2014-09-20T15:52:17Z</time>
      </trkpt>
      <trkpt lat="46.47879" lon="-0.5386">
        <ele>69.35</ele>
        <time>2014-09-20T15:52:26Z</time>
      </trkpt>
      <trkpt lat="46.47878" lon="-0.53877">
        <ele>68.39</ele>
        <time>2014-09-20T15:52:37Z</time>
      </trkpt>
      <trkpt lat="46.4788" lon="-0.53883">
        <ele>67.43</ele>
        <time>2014-09-20T15:52:46Z</time>
      </trkpt>
      <trkpt lat="46.47878" lon="-0.53889">
        <ele>66.47</ele>
        <time>2014-09-20T15:52:56Z</time>
      </trkpt>
      <trkpt lat="46.47878" lon="-0.539">
        <ele>65.99</ele>
        <time>2014-09-20T15:53:05Z</time>
      </trkpt>
      <trkpt lat="46.4788" lon="-0.53917">
        <ele>65.03</ele>
        <time>2014-09-20T15:53:17Z</time>
      </trkpt>
      <trkpt lat="46.47881" lon="-0.53932">
        <ele>64.07</ele>
        <time>2014-09-20T15:53:26Z</time>
      </trkpt>
      <trkpt lat="46.47881" lon="-0.53946">
        <ele>62.14</ele>
        <time>2014-09-20T15:53:36Z</time>
      </trkpt>
      <trkpt lat="46.47882" lon="-0.53962">
        <ele>60.22</ele>
        <time>2014-09-20T15:53:48Z</time>
      </trkpt>
      <trkpt lat="46.47881" lon="-0.53981">
        <ele>58.3</ele>
        <time>2014-09-20T15:53:59Z</time>
      </trkpt>
      <trkpt lat="46.47877" lon="-0.54001">
        <ele>55.89</ele>
        <time>2014-09-20T15:54:11Z</time>
      </trkpt>
      <trkpt lat="46.47873" lon="-0.54015">
        <ele>53.49</ele>
        <time>2014-09-20T15:54:20Z</time>
      </trkpt>
      <trkpt lat="46.47871" lon="-0.54029">
        <ele>52.05</ele>
        <time>2014-09-20T15:54:28Z</time>
      </trkpt>
      <trkpt lat="46.4787" lon="-0.54032">
        <ele>51.57</ele>
        <time>2014-09-20T15:54:30Z</time>
      </trkpt>
      <trkpt lat="46.47867" lon="-0.54041">
        <ele>50.13</ele>
        <time>2014-09-20T15:54:38Z</time>
      </trkpt>
      <trkpt lat="46.47862" lon="-0.54052">
        <ele>49.65</ele>
        <time>2014-09-20T15:54:52Z</time>
      </trkpt>
      <trkpt lat="46.47855" lon="-0.54068">
        <ele>49.16</ele>
        <time>2014-09-20T15:55:03Z</time>
      </trkpt>
      <trkpt lat="46.47848" lon="-0.54079">
        <ele>48.68</ele>
        <time>2014-09-20T15:55:10Z</time>
      </trkpt>
      <trkpt lat="46.47841" lon="-0.54094">
        <ele>49.16</ele>
        <time>2014-09-20T15:55:20Z</time>
      </trkpt>
      <trkpt lat="46.47838" lon="-0.54105">
        <ele>48.68</ele>
        <time>2014-09-20T15:55:28Z</time>
      </trkpt>
      <trkpt lat="46.47836" lon="-0.54114">
        <ele>47.24</ele>
        <time>2014-09-20T15:55:34Z</time>
      </trkpt>
      <trkpt lat="46.47833" lon="-0.54127">
        <ele>44.84</ele>
        <time>2014-09-20T15:55:41Z</time>
      </trkpt>
      <trkpt lat="46.47831" lon="-0.54138">
        <ele>42.44</ele>
        <time>2014-09-20T15:55:49Z</time>
      </trkpt>
      <trkpt lat="46.47824" lon="-0.54155">
        <ele>40.03</ele>
        <time>2014-09-20T15:56:00Z</time>
      </trkpt>
      <trkpt lat="46.47819" lon="-0.54169">
        <ele>39.55</ele>
        <time>2014-09-20T15:56:09Z</time>
      </trkpt>
      <trkpt lat="46.47812" lon="-0.54184">
        <ele>39.55</ele>
        <time>2014-09-20T15:56:18Z</time>
      </trkpt>
      <trkpt lat="46.47811" lon="-0.54186">
        <ele>39.55</ele>
        <time>2014-09-20T15:56:20Z</time>
      </trkpt>
      <trkpt lat="46.47805" lon="-0.54199">
        <ele>38.59</ele>
        <time>2014-09-20T15:56:29Z</time>
      </trkpt>
      <trkpt lat="46.47798" lon="-0.54209">
        <ele>38.11</ele>
        <time>2014-09-20T15:56:37Z</time>
      </trkpt>
      <trkpt lat="46.47794" lon="-0.54217">
        <ele>37.15</ele>
        <time>2014-09-20T15:56:47Z</time>
      </trkpt>
      <trkpt lat="46.47791" lon="-0.54226">
        <ele>36.67</ele>
        <time>2014-09-20T15:56:54Z</time>
      </trkpt>
      <trkpt lat="46.47791" lon="-0.54237">
        <ele>35.71</ele>
        <time>2014-09-20T15:57:01Z</time>
      </trkpt>
      <trkpt lat="46.47787" lon="-0.54247">
        <ele>34.26</ele>
        <time>2014-09-20T15:57:08Z</time>
      </trkpt>
      <trkpt lat="46.47784" lon="-0.54254">
        <ele>34.26</ele>
        <time>2014-09-20T15:57:17Z</time>
      </trkpt>
      <trkpt lat="46.47784" lon="-0.54261">
        <ele>34.26</ele>
        <time>2014-09-20T15:57:27Z</time>
      </trkpt>
      <trkpt lat="46.47779" lon="-0.5427">
        <ele>35.23</ele>
        <time>2014-09-20T15:57:38Z</time>
      </trkpt>
      <trkpt lat="46.47779" lon="-0.54277">
        <ele>34.74</ele>
        <time>2014-09-20T15:57:54Z</time>
      </trkpt>
      <trkpt lat="46.47777" lon="-0.54282">
        <ele>34.74</ele>
        <time>2014-09-20T15:58:08Z</time>
      </trkpt>
      <trkpt lat="46.47775" lon="-0.54285">
        <ele>34.74</ele>
        <time>2014-09-20T15:58:21Z</time>
      </trkpt>
      <trkpt lat="46.47779" lon="-0.54293">
        <ele>34.74</ele>
        <time>2014-09-20T15:58:30Z</time>
      </trkpt>
      <trkpt lat="46.47781" lon="-0.54301">
        <ele>35.71</ele>
        <time>2014-09-20T15:58:36Z</time>
      </trkpt>
      <trkpt lat="46.47776" lon="-0.54311">
        <ele>36.67</ele>
        <time>2014-09-20T15:58:44Z</time>
      </trkpt>
      <trkpt lat="46.47775" lon="-0.54325">
        <ele>37.15</ele>
        <time>2014-09-20T15:58:53Z</time>
      </trkpt>
      <trkpt lat="46.4778" lon="-0.54337">
        <ele>37.63</ele>
        <time>2014-09-20T15:59:01Z</time>
      </trkpt>
      <trkpt lat="46.47782" lon="-0.54343">
        <ele>37.63</ele>
        <time>2014-09-20T15:59:07Z</time>
      </trkpt>
      <trkpt lat="46.47783" lon="-0.54358">
        <ele>38.11</ele>
        <time>2014-09-20T15:59:19Z</time>
      </trkpt>
      <trkpt lat="46.47787" lon="-0.54367">
        <ele>38.11</ele>
        <time>2014-09-20T15:59:25Z</time>
      </trkpt>
      <trkpt lat="46.47791" lon="-0.54379">
        <ele>38.59</ele>
        <time>2014-09-20T15:59:34Z</time>
      </trkpt>
      <trkpt lat="46.47795" lon="-0.54398">
        <ele>37.63</ele>
        <time>2014-09-20T15:59:44Z</time>
      </trkpt>
      <trkpt lat="46.47799" lon="-0.5441">
        <ele>37.15</ele>
        <time>2014-09-20T15:59:51Z</time>
      </trkpt>
      <trkpt lat="46.47808" lon="-0.54423">
        <ele>37.15</ele>
        <time>2014-09-20T16:00:01Z</time>
      </trkpt>
      <trkpt lat="46.47816" lon="-0.54434">
        <ele>35.71</ele>
        <time>2014-09-20T16:00:10Z</time>
      </trkpt>
      <trkpt lat="46.47821" lon="-0.54443">
        <ele>35.23</ele>
        <time>2014-09-20T16:00:17Z</time>
      </trkpt>
      <trkpt lat="46.47824" lon="-0.54446">
        <ele>35.23</ele>
        <time>2014-09-20T16:00:22Z</time>
      </trkpt>
      <trkpt lat="46.47833" lon="-0.54457">
        <ele>34.26</ele>
        <time>2014-09-20T16:00:31Z</time>
      </trkpt>
      <trkpt lat="46.47841" lon="-0.54468">
        <ele>34.74</ele>
        <time>2014-09-20T16:00:40Z</time>
      </trkpt>
      <trkpt lat="46.47847" lon="-0.54474">
        <ele>34.74</ele>
        <time>2014-09-20T16:00:45Z</time>
      </trkpt>
      <trkpt lat="46.47849" lon="-0.54476">
        <ele>35.23</ele>
        <time>2014-09-20T16:00:48Z</time>
      </trkpt>
      <trkpt lat="46.47857" lon="-0.54491">
        <ele>36.19</ele>
        <time>2014-09-20T16:01:00Z</time>
      </trkpt>
      <trkpt lat="46.47856" lon="-0.54495">
        <ele>36.67</ele>
        <time>2014-09-20T16:01:04Z</time>
      </trkpt>
      <trkpt lat="46.47852" lon="-0.54499">
        <ele>37.63</ele>
        <time>2014-09-20T16:01:09Z</time>
      </trkpt>
      <trkpt lat="46.4784" lon="-0.54502">
        <ele>38.59</ele>
        <time>2014-09-20T16:01:21Z</time>
      </trkpt>
      <trkpt lat="46.47832" lon="-0.54505">
        <ele>39.55</ele>
        <time>2014-09-20T16:01:29Z</time>
      </trkpt>
      <trkpt lat="46.47821" lon="-0.54506">
        <ele>40.03</ele>
        <time>2014-09-20T16:01:42Z</time>
      </trkpt>
      <trkpt lat="46.47807" lon="-0.54509">
        <ele>40.51</ele>
        <time>2014-09-20T16:01:56Z</time>
      </trkpt>
      <trkpt lat="46.47794" lon="-0.54509">
        <ele>41.47</ele>
        <time>2014-09-20T16:02:08Z</time>
      </trkpt>
      <trkpt lat="46.4778" lon="-0.54511">
        <ele>41.95</ele>
        <time>2014-09-20T16:02:20Z</time>
      </trkpt>
      <trkpt lat="46.47767" lon="-0.54514">
        <ele>42.44</ele>
        <time>2014-09-20T16:02:31Z</time>
      </trkpt>
      <trkpt lat="46.47754" lon="-0.54516">
        <ele>43.4</ele>
        <time>2014-09-20T16:02:43Z</time>
      </trkpt>
      <trkpt lat="46.47738" lon="-0.5452">
        <ele>42.92</ele>
        <time>2014-09-20T16:02:57Z</time>
      </trkpt>
      <trkpt lat="46.47731" lon="-0.54524">
        <ele>42.92</ele>
        <time>2014-09-20T16:03:04Z</time>
      </trkpt>
      <trkpt lat="46.47725" lon="-0.54542">
        <ele>40.99</ele>
        <time>2014-09-20T16:03:17Z</time>
      </trkpt>
      <trkpt lat="46.47723" lon="-0.54557">
        <ele>39.55</ele>
        <time>2014-09-20T16:03:27Z</time>
      </trkpt>
      <trkpt lat="46.47721" lon="-0.5457">
        <ele>38.11</ele>
        <time>2014-09-20T16:03:37Z</time>
      </trkpt>
      <trkpt lat="46.47719" lon="-0.54591">
        <ele>36.67</ele>
        <time>2014-09-20T16:03:49Z</time>
      </trkpt>
      <trkpt lat="46.47714" lon="-0.54616">
        <ele>35.23</ele>
        <time>2014-09-20T16:04:06Z</time>
      </trkpt>
      <trkpt lat="46.47712" lon="-0.5464">
        <ele>33.78</ele>
        <time>2014-09-20T16:04:21Z</time>
      </trkpt>
      <trkpt lat="46.47712" lon="-0.54654">
        <ele>33.78</ele>
        <time>2014-09-20T16:04:32Z</time>
      </trkpt>
      <trkpt lat="46.47711" lon="-0.54674">
        <ele>33.78</ele>
        <time>2014-09-20T16:04:46Z</time>
      </trkpt>
      <trkpt lat="46.47704" lon="-0.54694">
        <ele>34.26</ele>
        <time>2014-09-20T16:05:04Z</time>
      </trkpt>
      <trkpt lat="46.47693" lon="-0.54706">
        <ele>35.71</ele>
        <time>2014-09-20T16:05:21Z</time>
      </trkpt>
      <trkpt lat="46.47683" lon="-0.54714">
        <ele>37.63</ele>
        <time>2014-09-20T16:05:36Z</time>
      </trkpt>
      <trkpt lat="46.47674" lon="-0.54723">
        <ele>39.07</ele>
        <time>2014-09-20T16:05:49Z</time>
      </trkpt>
      <trkpt lat="46.47667" lon="-0.54734">
        <ele>40.51</ele>
        <time>2014-09-20T16:06:02Z</time>
      </trkpt>
      <trkpt lat="46.47662" lon="-0.54748">
        <ele>42.44</ele>
        <time>2014-09-20T16:06:18Z</time>
      </trkpt>
      <trkpt lat="46.47658" lon="-0.54764">
        <ele>42.92</ele>
        <time>2014-09-20T16:06:30Z</time>
      </trkpt>
      <trkpt lat="46.47659" lon="-0.54776">
        <ele>44.36</ele>
        <time>2014-09-20T16:06:37Z</time>
      </trkpt>
      <trkpt lat="46.47667" lon="-0.54792">
        <ele>47.24</ele>
        <time>2014-09-20T16:06:47Z</time>
      </trkpt>
      <trkpt lat="46.47673" lon="-0.548">
        <ele>48.2</ele>
        <time>2014-09-20T16:06:53Z</time>
      </trkpt>
      <trkpt lat="46.47678" lon="-0.5481">
        <ele>48.2</ele>
        <time>2014-09-20T16:07:01Z</time>
      </trkpt>
      <trkpt lat="46.47683" lon="-0.54823">
        <ele>49.65</ele>
        <time>2014-09-20T16:07:11Z</time>
      </trkpt>
      <trkpt lat="46.47688" lon="-0.54837">
        <ele>50.13</ele>
        <time>2014-09-20T16:07:21Z</time>
      </trkpt>
      <trkpt lat="46.47689" lon="-0.54841">
        <ele>50.61</ele>
        <time>2014-09-20T16:07:29Z</time>
      </trkpt>
      <trkpt lat="46.47689" lon="-0.5484">
        <ele>51.09</ele>
        <time>2014-09-20T16:07:48Z</time>
      </trkpt>
      <trkpt lat="46.47689" lon="-0.54845">
        <ele>51.09</ele>
        <time>2014-09-20T16:07:57Z</time>
      </trkpt>
      <trkpt lat="46.47693" lon="-0.54853">
        <ele>52.05</ele>
        <time>2014-09-20T16:08:02Z</time>
      </trkpt>
      <trkpt lat="46.47699" lon="-0.54866">
        <ele>53.01</ele>
        <time>2014-09-20T16:08:12Z</time>
      </trkpt>
      <trkpt lat="46.47703" lon="-0.54877">
        <ele>54.45</ele>
        <time>2014-09-20T16:08:19Z</time>
      </trkpt>
      <trkpt lat="46.47708" lon="-0.54887">
        <ele>54.93</ele>
        <time>2014-09-20T16:08:25Z</time>
      </trkpt>
      <trkpt lat="46.47708" lon="-0.54892">
        <ele>54.45</ele>
        <time>2014-09-20T16:08:28Z</time>
      </trkpt>
      <trkpt lat="46.47706" lon="-0.54894">
        <ele>56.37</ele>
        <time>2014-09-20T16:08:36Z</time>
      </trkpt>
      <trkpt lat="46.47701" lon="-0.54892">
        <ele>57.34</ele>
        <time>2014-09-20T16:08:41Z</time>
      </trkpt>
      <trkpt lat="46.4769" lon="-0.5489">
        <ele>58.78</ele>
        <time>2014-09-20T16:08:53Z</time>
      </trkpt>
      <trkpt lat="46.47684" lon="-0.54895">
        <ele>59.74</ele>
        <time>2014-09-20T16:08:59Z</time>
      </trkpt>
      <trkpt lat="46.47668" lon="-0.54906">
        <ele>60.22</ele>
        <time>2014-09-20T16:09:13Z</time>
      </trkpt>
      <trkpt lat="46.4766" lon="-0.54907">
        <ele>61.66</ele>
        <time>2014-09-20T16:09:24Z</time>
      </trkpt>
      <trkpt lat="46.47658" lon="-0.54909">
        <ele>61.66</ele>
        <time>2014-09-20T16:09:35Z</time>
      </trkpt>
      <trkpt lat="46.47652" lon="-0.54916">
        <ele>61.66</ele>
        <time>2014-09-20T16:09:43Z</time>
      </trkpt>
      <trkpt lat="46.47644" lon="-0.5492">
        <ele>61.66</ele>
        <time>2014-09-20T16:09:52Z</time>
      </trkpt>
      <trkpt lat="46.47638" lon="-0.54921">
        <ele>61.18</ele>
        <time>2014-09-20T16:10:02Z</time>
      </trkpt>
      <trkpt lat="46.47634" lon="-0.5492">
        <ele>61.18</ele>
        <time>2014-09-20T16:10:06Z</time>
      </trkpt>
      <trkpt lat="46.47625" lon="-0.54929">
        <ele>58.78</ele>
        <time>2014-09-20T16:10:15Z</time>
      </trkpt>
      <trkpt lat="46.47619" lon="-0.54935">
        <ele>57.34</ele>
        <time>2014-09-20T16:10:23Z</time>
      </trkpt>
      <trkpt lat="46.47612" lon="-0.5494">
        <ele>56.86</ele>
        <time>2014-09-20T16:10:32Z</time>
      </trkpt>
      <trkpt lat="46.47603" lon="-0.54947">
        <ele>55.41</ele>
        <time>2014-09-20T16:10:43Z</time>
      </trkpt>
      <trkpt lat="46.47593" lon="-0.54958">
        <ele>54.93</ele>
        <time>2014-09-20T16:10:54Z</time>
      </trkpt>
      <trkpt lat="46.47583" lon="-0.54967">
        <ele>53.97</ele>
        <time>2014-09-20T16:11:05Z</time>
      </trkpt>
      <trkpt lat="46.47575" lon="-0.54973">
        <ele>54.45</ele>
        <time>2014-09-20T16:11:12Z</time>
      </trkpt>
      <trkpt lat="46.47568" lon="-0.54979">
        <ele>54.45</ele>
        <time>2014-09-20T16:11:20Z</time>
      </trkpt>
      <trkpt lat="46.47564" lon="-0.54984">
        <ele>53.97</ele>
        <time>2014-09-20T16:11:26Z</time>
      </trkpt>
      <trkpt lat="46.4756" lon="-0.54991">
        <ele>54.45</ele>
        <time>2014-09-20T16:11:34Z</time>
      </trkpt>
      <trkpt lat="46.47553" lon="-0.55001">
        <ele>55.41</ele>
        <time>2014-09-20T16:11:40Z</time>
      </trkpt>
      <trkpt lat="46.47546" lon="-0.55004">
        <ele>56.37</ele>
        <time>2014-09-20T16:11:48Z</time>
      </trkpt>
      <trkpt lat="46.47536" lon="-0.55005">
        <ele>57.34</ele>
        <time>2014-09-20T16:12:01Z</time>
      </trkpt>
      <trkpt lat="46.47533" lon="-0.55008">
        <ele>56.37</ele>
        <time>2014-09-20T16:12:09Z</time>
      </trkpt>
      <trkpt lat="46.47533" lon="-0.55012">
        <ele>55.89</ele>
        <time>2014-09-20T16:12:14Z</time>
      </trkpt>
      <trkpt lat="46.47537" lon="-0.55032">
        <ele>54.93</ele>
        <time>2014-09-20T16:12:26Z</time>
      </trkpt>
      <trkpt lat="46.47543" lon="-0.55054">
        <ele>53.97</ele>
        <time>2014-09-20T16:12:41Z</time>
      </trkpt>
      <trkpt lat="46.47547" lon="-0.55067">
        <ele>53.97</ele>
        <time>2014-09-20T16:12:51Z</time>
      </trkpt>
      <trkpt lat="46.47552" lon="-0.55081">
        <ele>54.93</ele>
        <time>2014-09-20T16:13:01Z</time>
      </trkpt>
      <trkpt lat="46.47558" lon="-0.55099">
        <ele>54.45</ele>
        <time>2014-09-20T16:13:13Z</time>
      </trkpt>
      <trkpt lat="46.47562" lon="-0.55113">
        <ele>53.49</ele>
        <time>2014-09-20T16:13:23Z</time>
      </trkpt>
      <trkpt lat="46.47565" lon="-0.55124">
        <ele>52.05</ele>
        <time>2014-09-20T16:13:31Z</time>
      </trkpt>
    </trkseg>
  </trk>
</gpx>